<?xml version="1.0" encoding="UTF-8" standalone="no" ?>
<gpx xmlns="http://www.topografix.com/GPX/1/1" xmlns:xsi="http://www.w3.org/2001/XMLSchema-instance" xsi:schemaLocation="http://www.topografix.com/GPX/1/1 http://www.topografix.com/GPX/1/1/gpx.xsd" version="1.1" creator="VisuGPX - https://www.visugpx.com">
  <metadata>
    <name>POUR LES COSTAUD ONF 15/01</name>
    <desc><![CDATA[
]]></desc>
  </metadata>
  <trk>
    <name><![CDATA[POUR LES COSTAUD ONF 15/01]]></name>
    <trkseg>
      <trkpt lat="44.02587" lon="5.31921">
        <ele>828.94580078125</ele>
        <time>2020-01-16T19:20:43.000Z</time>
      </trkpt>
      <trkpt lat="44.02581" lon="5.31918">
        <ele>828.6259765625</ele>
        <time>2020-01-16T19:20:43.001Z</time>
      </trkpt>
      <trkpt lat="44.02431" lon="5.31845">
        <ele>818.48211669922</ele>
        <time>2020-01-16T19:20:43.034Z</time>
      </trkpt>
      <trkpt lat="44.02431" lon="5.31845">
        <ele>818.47131347656</ele>
        <time>2020-01-16T19:20:43.067Z</time>
      </trkpt>
      <trkpt lat="44.02409" lon="5.31806">
        <ele>815.93267822266</ele>
        <time>2020-01-16T19:20:43.107Z</time>
      </trkpt>
      <trkpt lat="44.02409" lon="5.31806">
        <ele>815.9345703125</ele>
        <time>2020-01-16T19:20:43.147Z</time>
      </trkpt>
      <trkpt lat="44.024" lon="5.31785">
        <ele>815.55914306641</ele>
        <time>2020-01-16T19:20:43.191Z</time>
      </trkpt>
      <trkpt lat="44.024" lon="5.31785">
        <ele>815.55902099609</ele>
        <time>2020-01-16T19:20:43.235Z</time>
      </trkpt>
      <trkpt lat="44.02358" lon="5.31787">
        <ele>811.42645263672</ele>
        <time>2020-01-16T19:20:43.287Z</time>
      </trkpt>
      <trkpt lat="44.02358" lon="5.31787">
        <ele>811.42340087891</ele>
        <time>2020-01-16T19:20:43.339Z</time>
      </trkpt>
      <trkpt lat="44.02304" lon="5.3179">
        <ele>805.31329345703</ele>
        <time>2020-01-16T19:20:43.402Z</time>
      </trkpt>
      <trkpt lat="44.02304" lon="5.3179">
        <ele>805.30383300781</ele>
        <time>2020-01-16T19:20:43.465Z</time>
      </trkpt>
      <trkpt lat="44.02294" lon="5.3179">
        <ele>804.08673095703</ele>
        <time>2020-01-16T19:20:43.530Z</time>
      </trkpt>
      <trkpt lat="44.02294" lon="5.3179">
        <ele>804.08245849609</ele>
        <time>2020-01-16T19:20:43.595Z</time>
      </trkpt>
      <trkpt lat="44.02249" lon="5.31824">
        <ele>799.74859619141</ele>
        <time>2020-01-16T19:20:43.670Z</time>
      </trkpt>
      <trkpt lat="44.02249" lon="5.31824">
        <ele>799.74676513672</ele>
        <time>2020-01-16T19:20:43.745Z</time>
      </trkpt>
      <trkpt lat="44.0222" lon="5.31829">
        <ele>798.28887939453</ele>
        <time>2020-01-16T19:20:43.826Z</time>
      </trkpt>
      <trkpt lat="44.0222" lon="5.31829">
        <ele>798.28503417969</ele>
        <time>2020-01-16T19:20:43.907Z</time>
      </trkpt>
      <trkpt lat="44.022" lon="5.31849">
        <ele>796.85229492188</ele>
        <time>2020-01-16T19:20:43.993Z</time>
      </trkpt>
      <trkpt lat="44.022" lon="5.31849">
        <ele>796.85003662109</ele>
        <time>2020-01-16T19:20:44.079Z</time>
      </trkpt>
      <trkpt lat="44.02165" lon="5.31857">
        <ele>794.51080322266</ele>
        <time>2020-01-16T19:20:44.172Z</time>
      </trkpt>
      <trkpt lat="44.02165" lon="5.31857">
        <ele>794.50964355469</ele>
        <time>2020-01-16T19:20:44.265Z</time>
      </trkpt>
      <trkpt lat="44.02155" lon="5.3187">
        <ele>794.74176025391</ele>
        <time>2020-01-16T19:20:44.361Z</time>
      </trkpt>
      <trkpt lat="44.02155" lon="5.3187">
        <ele>794.74243164062</ele>
        <time>2020-01-16T19:20:44.457Z</time>
      </trkpt>
      <trkpt lat="44.02127" lon="5.31893">
        <ele>795.76989746094</ele>
        <time>2020-01-16T19:20:44.559Z</time>
      </trkpt>
      <trkpt lat="44.02127" lon="5.31893">
        <ele>795.77319335938</ele>
        <time>2020-01-16T19:20:44.661Z</time>
      </trkpt>
      <trkpt lat="44.02107" lon="5.31886">
        <ele>794.55999755859</ele>
        <time>2020-01-16T19:20:44.767Z</time>
      </trkpt>
      <trkpt lat="44.02107" lon="5.31886">
        <ele>794.55297851562</ele>
        <time>2020-01-16T19:20:44.873Z</time>
      </trkpt>
      <trkpt lat="44.02055" lon="5.31856">
        <ele>789.71282958984</ele>
        <time>2020-01-16T19:20:44.991Z</time>
      </trkpt>
      <trkpt lat="44.02055" lon="5.31856">
        <ele>789.70446777344</ele>
        <time>2020-01-16T19:20:45.109Z</time>
      </trkpt>
      <trkpt lat="44.02003" lon="5.31866">
        <ele>788.34350585938</ele>
        <time>2020-01-16T19:20:45.237Z</time>
      </trkpt>
      <trkpt lat="44.02002" lon="5.31866">
        <ele>788.34423828125</ele>
        <time>2020-01-16T19:20:45.365Z</time>
      </trkpt>
      <trkpt lat="44.01952" lon="5.3185">
        <ele>786.24536132812</ele>
        <time>2020-01-16T19:20:45.504Z</time>
      </trkpt>
      <trkpt lat="44.01951" lon="5.3185">
        <ele>786.24011230469</ele>
        <time>2020-01-16T19:20:45.643Z</time>
      </trkpt>
      <trkpt lat="44.01918" lon="5.31802">
        <ele>781.78552246094</ele>
        <time>2020-01-16T19:20:45.791Z</time>
      </trkpt>
      <trkpt lat="44.01918" lon="5.31802">
        <ele>781.78118896484</ele>
        <time>2020-01-16T19:20:45.939Z</time>
      </trkpt>
      <trkpt lat="44.01891" lon="5.31767">
        <ele>779.82763671875</ele>
        <time>2020-01-16T19:20:46.095Z</time>
      </trkpt>
      <trkpt lat="44.01891" lon="5.31767">
        <ele>779.82415771484</ele>
        <time>2020-01-16T19:20:46.251Z</time>
      </trkpt>
      <trkpt lat="44.01852" lon="5.31769">
        <ele>780.47869873047</ele>
        <time>2020-01-16T19:20:46.415Z</time>
      </trkpt>
      <trkpt lat="44.01852" lon="5.31769">
        <ele>780.48248291016</ele>
        <time>2020-01-16T19:20:46.579Z</time>
      </trkpt>
      <trkpt lat="44.01818" lon="5.31703">
        <ele>777.11889648438</ele>
        <time>2020-01-16T19:20:46.754Z</time>
      </trkpt>
      <trkpt lat="44.01818" lon="5.31703">
        <ele>777.1162109375</ele>
        <time>2020-01-16T19:20:46.929Z</time>
      </trkpt>
      <trkpt lat="44.01793" lon="5.31682">
        <ele>775.88470458984</ele>
        <time>2020-01-16T19:20:47.110Z</time>
      </trkpt>
      <trkpt lat="44.01793" lon="5.31681">
        <ele>775.88000488281</ele>
        <time>2020-01-16T19:20:47.291Z</time>
      </trkpt>
      <trkpt lat="44.01769" lon="5.31625">
        <ele>771.94854736328</ele>
        <time>2020-01-16T19:20:47.482Z</time>
      </trkpt>
      <trkpt lat="44.01769" lon="5.31625">
        <ele>771.94598388672</ele>
        <time>2020-01-16T19:20:47.673Z</time>
      </trkpt>
      <trkpt lat="44.01729" lon="5.31596">
        <ele>771.78656005859</ele>
        <time>2020-01-16T19:20:47.873Z</time>
      </trkpt>
      <trkpt lat="44.01729" lon="5.31596">
        <ele>771.78607177734</ele>
        <time>2020-01-16T19:20:48.073Z</time>
      </trkpt>
      <trkpt lat="44.01712" lon="5.31545">
        <ele>770.63763427734</ele>
        <time>2020-01-16T19:20:48.281Z</time>
      </trkpt>
      <trkpt lat="44.01712" lon="5.31545">
        <ele>770.63488769531</ele>
        <time>2020-01-16T19:20:48.489Z</time>
      </trkpt>
      <trkpt lat="44.01698" lon="5.31508">
        <ele>768.80706787109</ele>
        <time>2020-01-16T19:20:48.703Z</time>
      </trkpt>
      <trkpt lat="44.01698" lon="5.31508">
        <ele>768.802734375</ele>
        <time>2020-01-16T19:20:48.917Z</time>
      </trkpt>
      <trkpt lat="44.01639" lon="5.31476">
        <ele>764.26135253906</ele>
        <time>2020-01-16T19:20:49.143Z</time>
      </trkpt>
      <trkpt lat="44.01639" lon="5.31475">
        <ele>764.24908447266</ele>
        <time>2020-01-16T19:20:49.370Z</time>
      </trkpt>
      <trkpt lat="44.01576" lon="5.3142">
        <ele>759.92010498047</ele>
        <time>2020-01-16T19:20:49.611Z</time>
      </trkpt>
      <trkpt lat="44.01576" lon="5.3142">
        <ele>759.91345214844</ele>
        <time>2020-01-16T19:20:49.852Z</time>
      </trkpt>
      <trkpt lat="44.01534" lon="5.31388">
        <ele>757.50476074219</ele>
        <time>2020-01-16T19:20:50.103Z</time>
      </trkpt>
      <trkpt lat="44.01534" lon="5.31388">
        <ele>757.49713134766</ele>
        <time>2020-01-16T19:20:50.354Z</time>
      </trkpt>
      <trkpt lat="44.01509" lon="5.31339">
        <ele>755.80462646484</ele>
        <time>2020-01-16T19:20:50.614Z</time>
      </trkpt>
      <trkpt lat="44.01509" lon="5.31339">
        <ele>755.80151367188</ele>
        <time>2020-01-16T19:20:50.874Z</time>
      </trkpt>
      <trkpt lat="44.0146" lon="5.31286">
        <ele>754.08489990234</ele>
        <time>2020-01-16T19:20:51.146Z</time>
      </trkpt>
      <trkpt lat="44.0146" lon="5.31286">
        <ele>754.08227539062</ele>
        <time>2020-01-16T19:20:51.418Z</time>
      </trkpt>
      <trkpt lat="44.01423" lon="5.31281">
        <ele>752.41412353516</ele>
        <time>2020-01-16T19:20:51.698Z</time>
      </trkpt>
      <trkpt lat="44.01423" lon="5.31281">
        <ele>752.40777587891</ele>
        <time>2020-01-16T19:20:51.978Z</time>
      </trkpt>
      <trkpt lat="44.01382" lon="5.31289">
        <ele>751.96923828125</ele>
        <time>2020-01-16T19:20:52.266Z</time>
      </trkpt>
      <trkpt lat="44.01382" lon="5.31289">
        <ele>751.96716308594</ele>
        <time>2020-01-16T19:20:52.554Z</time>
      </trkpt>
      <trkpt lat="44.0136" lon="5.31285">
        <ele>751.17590332031</ele>
        <time>2020-01-16T19:20:52.846Z</time>
      </trkpt>
      <trkpt lat="44.0136" lon="5.31285">
        <ele>751.16912841797</ele>
        <time>2020-01-16T19:20:53.138Z</time>
      </trkpt>
      <trkpt lat="44.01329" lon="5.31235">
        <ele>748.24243164062</ele>
        <time>2020-01-16T19:20:53.440Z</time>
      </trkpt>
      <trkpt lat="44.01328" lon="5.31235">
        <ele>748.23480224609</ele>
        <time>2020-01-16T19:20:53.742Z</time>
      </trkpt>
      <trkpt lat="44.013" lon="5.31168">
        <ele>745.7529296875</ele>
        <time>2020-01-16T19:20:54.055Z</time>
      </trkpt>
      <trkpt lat="44.013" lon="5.31168">
        <ele>745.75024414062</ele>
        <time>2020-01-16T19:20:54.368Z</time>
      </trkpt>
      <trkpt lat="44.01276" lon="5.31147">
        <ele>745.60076904297</ele>
        <time>2020-01-16T19:20:54.687Z</time>
      </trkpt>
      <trkpt lat="44.01276" lon="5.31147">
        <ele>745.59979248047</ele>
        <time>2020-01-16T19:20:55.006Z</time>
      </trkpt>
      <trkpt lat="44.01198" lon="5.31126">
        <ele>739.64959716797</ele>
        <time>2020-01-16T19:20:55.341Z</time>
      </trkpt>
      <trkpt lat="44.01198" lon="5.31126">
        <ele>739.63482666016</ele>
        <time>2020-01-16T19:20:55.676Z</time>
      </trkpt>
      <trkpt lat="44.01114" lon="5.31119">
        <ele>736.46661376953</ele>
        <time>2020-01-16T19:20:56.028Z</time>
      </trkpt>
      <trkpt lat="44.01114" lon="5.31119">
        <ele>736.45739746094</ele>
        <time>2020-01-16T19:20:56.380Z</time>
      </trkpt>
      <trkpt lat="44.01057" lon="5.31122">
        <ele>734.25561523438</ele>
        <time>2020-01-16T19:20:56.743Z</time>
      </trkpt>
      <trkpt lat="44.01057" lon="5.31122">
        <ele>734.24664306641</ele>
        <time>2020-01-16T19:20:57.106Z</time>
      </trkpt>
      <trkpt lat="44.01014" lon="5.31112">
        <ele>732.68988037109</ele>
        <time>2020-01-16T19:20:57.478Z</time>
      </trkpt>
      <trkpt lat="44.01014" lon="5.31112">
        <ele>732.67962646484</ele>
        <time>2020-01-16T19:20:57.850Z</time>
      </trkpt>
      <trkpt lat="44.00984" lon="5.3111">
        <ele>732.2578125</ele>
        <time>2020-01-16T19:20:58.228Z</time>
      </trkpt>
      <trkpt lat="44.00984" lon="5.3111">
        <ele>732.25708007812</ele>
        <time>2020-01-16T19:20:58.606Z</time>
      </trkpt>
      <trkpt lat="44.00951" lon="5.3112">
        <ele>732.640625</ele>
        <time>2020-01-16T19:20:58.990Z</time>
      </trkpt>
      <trkpt lat="44.00951" lon="5.3112">
        <ele>732.64324951172</ele>
        <time>2020-01-16T19:20:59.374Z</time>
      </trkpt>
      <trkpt lat="44.00919" lon="5.31114">
        <ele>732.376953125</ele>
        <time>2020-01-16T19:20:59.765Z</time>
      </trkpt>
      <trkpt lat="44.00919" lon="5.31114">
        <ele>732.38342285156</ele>
        <time>2020-01-16T19:21:00.156Z</time>
      </trkpt>
      <trkpt lat="44.00883" lon="5.31097">
        <ele>732.19506835938</ele>
        <time>2020-01-16T19:21:00.554Z</time>
      </trkpt>
      <trkpt lat="44.00883" lon="5.31097">
        <ele>732.19390869141</ele>
        <time>2020-01-16T19:21:00.952Z</time>
      </trkpt>
      <trkpt lat="44.00858" lon="5.31074">
        <ele>731.04357910156</ele>
        <time>2020-01-16T19:21:01.357Z</time>
      </trkpt>
      <trkpt lat="44.00857" lon="5.31074">
        <ele>731.04174804688</ele>
        <time>2020-01-16T19:21:01.762Z</time>
      </trkpt>
      <trkpt lat="44.00814" lon="5.31065">
        <ele>733.61334228516</ele>
        <time>2020-01-16T19:21:02.175Z</time>
      </trkpt>
      <trkpt lat="44.00814" lon="5.31065">
        <ele>733.62835693359</ele>
        <time>2020-01-16T19:21:02.588Z</time>
      </trkpt>
      <trkpt lat="44.00868" lon="5.31127">
        <ele>736.16717529297</ele>
        <time>2020-01-16T19:21:03.015Z</time>
      </trkpt>
      <trkpt lat="44.00868" lon="5.31127">
        <ele>736.17846679688</ele>
        <time>2020-01-16T19:21:03.442Z</time>
      </trkpt>
      <trkpt lat="44.0088" lon="5.31161">
        <ele>738.07568359375</ele>
        <time>2020-01-16T19:21:03.875Z</time>
      </trkpt>
      <trkpt lat="44.0088" lon="5.31161">
        <ele>738.08587646484</ele>
        <time>2020-01-16T19:21:04.308Z</time>
      </trkpt>
      <trkpt lat="44.00904" lon="5.31273">
        <ele>743.42944335938</ele>
        <time>2020-01-16T19:21:04.758Z</time>
      </trkpt>
      <trkpt lat="44.00904" lon="5.31273">
        <ele>743.43084716797</ele>
        <time>2020-01-16T19:21:05.208Z</time>
      </trkpt>
      <trkpt lat="44.00958" lon="5.31386">
        <ele>752.83843994141</ele>
        <time>2020-01-16T19:21:05.677Z</time>
      </trkpt>
      <trkpt lat="44.00958" lon="5.31386">
        <ele>752.85131835938</ele>
        <time>2020-01-16T19:21:06.146Z</time>
      </trkpt>
      <trkpt lat="44.01126" lon="5.31551">
        <ele>769.37640380859</ele>
        <time>2020-01-16T19:21:06.656Z</time>
      </trkpt>
      <trkpt lat="44.01126" lon="5.31552">
        <ele>769.39068603516</ele>
        <time>2020-01-16T19:21:07.167Z</time>
      </trkpt>
      <trkpt lat="44.01159" lon="5.31591">
        <ele>772.70776367188</ele>
        <time>2020-01-16T19:21:07.686Z</time>
      </trkpt>
      <trkpt lat="44.01159" lon="5.31591">
        <ele>772.72467041016</ele>
        <time>2020-01-16T19:21:08.205Z</time>
      </trkpt>
      <trkpt lat="44.01182" lon="5.31652">
        <ele>777.66687011719</ele>
        <time>2020-01-16T19:21:08.734Z</time>
      </trkpt>
      <trkpt lat="44.01182" lon="5.31652">
        <ele>777.67633056641</ele>
        <time>2020-01-16T19:21:09.263Z</time>
      </trkpt>
      <trkpt lat="44.01189" lon="5.3168">
        <ele>779.05346679688</ele>
        <time>2020-01-16T19:21:09.796Z</time>
      </trkpt>
      <trkpt lat="44.01189" lon="5.3168">
        <ele>779.06756591797</ele>
        <time>2020-01-16T19:21:10.329Z</time>
      </trkpt>
      <trkpt lat="44.01199" lon="5.31662">
        <ele>778.00604248047</ele>
        <time>2020-01-16T19:21:10.866Z</time>
      </trkpt>
      <trkpt lat="44.01199" lon="5.31662">
        <ele>777.99169921875</ele>
        <time>2020-01-16T19:21:11.403Z</time>
      </trkpt>
      <trkpt lat="44.01199" lon="5.31638">
        <ele>776.53015136719</ele>
        <time>2020-01-16T19:21:11.943Z</time>
      </trkpt>
      <trkpt lat="44.01199" lon="5.31637">
        <ele>776.51135253906</ele>
        <time>2020-01-16T19:21:12.483Z</time>
      </trkpt>
      <trkpt lat="44.01274" lon="5.31605">
        <ele>775.14141845703</ele>
        <time>2020-01-16T19:21:13.039Z</time>
      </trkpt>
      <trkpt lat="44.01274" lon="5.31605">
        <ele>775.13916015625</ele>
        <time>2020-01-16T19:21:13.595Z</time>
      </trkpt>
      <trkpt lat="44.01318" lon="5.31662">
        <ele>777.77746582031</ele>
        <time>2020-01-16T19:21:14.163Z</time>
      </trkpt>
      <trkpt lat="44.01318" lon="5.31663">
        <ele>777.78778076172</ele>
        <time>2020-01-16T19:21:14.731Z</time>
      </trkpt>
      <trkpt lat="44.01332" lon="5.31679">
        <ele>778.40936279297</ele>
        <time>2020-01-16T19:21:15.303Z</time>
      </trkpt>
      <trkpt lat="44.01333" lon="5.31679">
        <ele>778.41864013672</ele>
        <time>2020-01-16T19:21:15.875Z</time>
      </trkpt>
      <trkpt lat="44.01339" lon="5.31703">
        <ele>779.8095703125</ele>
        <time>2020-01-16T19:21:16.451Z</time>
      </trkpt>
      <trkpt lat="44.01339" lon="5.31703">
        <ele>779.82696533203</ele>
        <time>2020-01-16T19:21:17.027Z</time>
      </trkpt>
      <trkpt lat="44.01351" lon="5.31712">
        <ele>780.08142089844</ele>
        <time>2020-01-16T19:21:17.605Z</time>
      </trkpt>
      <trkpt lat="44.01351" lon="5.31712">
        <ele>780.08709716797</ele>
        <time>2020-01-16T19:21:18.183Z</time>
      </trkpt>
      <trkpt lat="44.01352" lon="5.31737">
        <ele>781.54241943359</ele>
        <time>2020-01-16T19:21:18.765Z</time>
      </trkpt>
      <trkpt lat="44.01352" lon="5.31737">
        <ele>781.56256103516</ele>
        <time>2020-01-16T19:21:19.347Z</time>
      </trkpt>
      <trkpt lat="44.01358" lon="5.31752">
        <ele>782.34857177734</ele>
        <time>2020-01-16T19:21:19.931Z</time>
      </trkpt>
      <trkpt lat="44.01358" lon="5.31753">
        <ele>782.3662109375</ele>
        <time>2020-01-16T19:21:20.515Z</time>
      </trkpt>
      <trkpt lat="44.01368" lon="5.31762">
        <ele>782.77282714844</ele>
        <time>2020-01-16T19:21:21.102Z</time>
      </trkpt>
      <trkpt lat="44.01368" lon="5.31762">
        <ele>782.78332519531</ele>
        <time>2020-01-16T19:21:21.689Z</time>
      </trkpt>
      <trkpt lat="44.01377" lon="5.31806">
        <ele>785.43048095703</ele>
        <time>2020-01-16T19:21:22.283Z</time>
      </trkpt>
      <trkpt lat="44.01377" lon="5.31806">
        <ele>785.45166015625</ele>
        <time>2020-01-16T19:21:22.877Z</time>
      </trkpt>
      <trkpt lat="44.01378" lon="5.31824">
        <ele>786.7841796875</ele>
        <time>2020-01-16T19:21:23.473Z</time>
      </trkpt>
      <trkpt lat="44.01378" lon="5.31824">
        <ele>786.81573486328</ele>
        <time>2020-01-16T19:21:24.069Z</time>
      </trkpt>
      <trkpt lat="44.01344" lon="5.31861">
        <ele>790.88623046875</ele>
        <time>2020-01-16T19:21:24.674Z</time>
      </trkpt>
      <trkpt lat="44.01344" lon="5.31861">
        <ele>790.91534423828</ele>
        <time>2020-01-16T19:21:25.279Z</time>
      </trkpt>
      <trkpt lat="44.01302" lon="5.31943">
        <ele>798.43035888672</ele>
        <time>2020-01-16T19:21:25.898Z</time>
      </trkpt>
      <trkpt lat="44.01301" lon="5.31944">
        <ele>798.45642089844</ele>
        <time>2020-01-16T19:21:26.517Z</time>
      </trkpt>
      <trkpt lat="44.01346" lon="5.3204">
        <ele>803.81121826172</ele>
        <time>2020-01-16T19:21:27.153Z</time>
      </trkpt>
      <trkpt lat="44.01347" lon="5.3204">
        <ele>803.82073974609</ele>
        <time>2020-01-16T19:21:27.789Z</time>
      </trkpt>
      <trkpt lat="44.01416" lon="5.32172">
        <ele>811.08386230469</ele>
        <time>2020-01-16T19:21:28.449Z</time>
      </trkpt>
      <trkpt lat="44.01416" lon="5.32172">
        <ele>811.09252929688</ele>
        <time>2020-01-16T19:21:29.109Z</time>
      </trkpt>
      <trkpt lat="44.01453" lon="5.32239">
        <ele>813.22564697266</ele>
        <time>2020-01-16T19:21:29.781Z</time>
      </trkpt>
      <trkpt lat="44.01453" lon="5.32239">
        <ele>813.22692871094</ele>
        <time>2020-01-16T19:21:30.453Z</time>
      </trkpt>
      <trkpt lat="44.01447" lon="5.32263">
        <ele>814.00231933594</ele>
        <time>2020-01-16T19:21:31.128Z</time>
      </trkpt>
      <trkpt lat="44.01447" lon="5.32263">
        <ele>814.01446533203</ele>
        <time>2020-01-16T19:21:31.803Z</time>
      </trkpt>
      <trkpt lat="44.01487" lon="5.3235">
        <ele>814.65478515625</ele>
        <time>2020-01-16T19:21:32.493Z</time>
      </trkpt>
      <trkpt lat="44.01487" lon="5.3235">
        <ele>814.65667724609</ele>
        <time>2020-01-16T19:21:33.183Z</time>
      </trkpt>
      <trkpt lat="44.01487" lon="5.3237">
        <ele>815.14898681641</ele>
        <time>2020-01-16T19:21:33.876Z</time>
      </trkpt>
      <trkpt lat="44.01487" lon="5.32371">
        <ele>815.15869140625</ele>
        <time>2020-01-16T19:21:34.569Z</time>
      </trkpt>
      <trkpt lat="44.01492" lon="5.3238">
        <ele>815.18127441406</ele>
        <time>2020-01-16T19:21:35.264Z</time>
      </trkpt>
      <trkpt lat="44.01492" lon="5.3238">
        <ele>815.18212890625</ele>
        <time>2020-01-16T19:21:35.959Z</time>
      </trkpt>
      <trkpt lat="44.01486" lon="5.32423">
        <ele>818.517578125</ele>
        <time>2020-01-16T19:21:36.660Z</time>
      </trkpt>
      <trkpt lat="44.01486" lon="5.32424">
        <ele>818.54534912109</ele>
        <time>2020-01-16T19:21:37.361Z</time>
      </trkpt>
      <trkpt lat="44.01508" lon="5.32451">
        <ele>819.67559814453</ele>
        <time>2020-01-16T19:21:38.068Z</time>
      </trkpt>
      <trkpt lat="44.01508" lon="5.32452">
        <ele>819.68780517578</ele>
        <time>2020-01-16T19:21:38.775Z</time>
      </trkpt>
      <trkpt lat="44.01555" lon="5.32479">
        <ele>820.49871826172</ele>
        <time>2020-01-16T19:21:39.493Z</time>
      </trkpt>
      <trkpt lat="44.01555" lon="5.3248">
        <ele>820.50756835938</ele>
        <time>2020-01-16T19:21:40.211Z</time>
      </trkpt>
      <trkpt lat="44.01572" lon="5.32488">
        <ele>820.69812011719</ele>
        <time>2020-01-16T19:21:40.932Z</time>
      </trkpt>
      <trkpt lat="44.01572" lon="5.32488">
        <ele>820.70190429688</ele>
        <time>2020-01-16T19:21:41.653Z</time>
      </trkpt>
      <trkpt lat="44.01592" lon="5.32529">
        <ele>825.40600585938</ele>
        <time>2020-01-16T19:21:42.381Z</time>
      </trkpt>
      <trkpt lat="44.01592" lon="5.3253">
        <ele>825.44549560547</ele>
        <time>2020-01-16T19:21:43.109Z</time>
      </trkpt>
      <trkpt lat="44.01595" lon="5.32549">
        <ele>827.61114501953</ele>
        <time>2020-01-16T19:21:43.840Z</time>
      </trkpt>
      <trkpt lat="44.01595" lon="5.3255">
        <ele>827.66229248047</ele>
        <time>2020-01-16T19:21:44.571Z</time>
      </trkpt>
      <trkpt lat="44.01614" lon="5.32605">
        <ele>833.92401123047</ele>
        <time>2020-01-16T19:21:45.311Z</time>
      </trkpt>
      <trkpt lat="44.01614" lon="5.32605">
        <ele>833.96569824219</ele>
        <time>2020-01-16T19:21:46.051Z</time>
      </trkpt>
      <trkpt lat="44.01631" lon="5.32651">
        <ele>838.26092529297</ele>
        <time>2020-01-16T19:21:46.799Z</time>
      </trkpt>
      <trkpt lat="44.01631" lon="5.32652">
        <ele>838.28259277344</ele>
        <time>2020-01-16T19:21:47.547Z</time>
      </trkpt>
      <trkpt lat="44.0165" lon="5.32682">
        <ele>839.72729492188</ele>
        <time>2020-01-16T19:21:48.301Z</time>
      </trkpt>
      <trkpt lat="44.0165" lon="5.32682">
        <ele>839.74353027344</ele>
        <time>2020-01-16T19:21:49.055Z</time>
      </trkpt>
      <trkpt lat="44.01652" lon="5.32706">
        <ele>840.35369873047</ele>
        <time>2020-01-16T19:21:49.812Z</time>
      </trkpt>
      <trkpt lat="44.01652" lon="5.32706">
        <ele>840.36547851562</ele>
        <time>2020-01-16T19:21:50.569Z</time>
      </trkpt>
      <trkpt lat="44.01645" lon="5.32722">
        <ele>840.20758056641</ele>
        <time>2020-01-16T19:21:51.329Z</time>
      </trkpt>
      <trkpt lat="44.01645" lon="5.32723">
        <ele>840.1962890625</ele>
        <time>2020-01-16T19:21:52.089Z</time>
      </trkpt>
      <trkpt lat="44.01636" lon="5.32728">
        <ele>839.79333496094</ele>
        <time>2020-01-16T19:21:52.851Z</time>
      </trkpt>
      <trkpt lat="44.01635" lon="5.32729">
        <ele>839.7783203125</ele>
        <time>2020-01-16T19:21:53.613Z</time>
      </trkpt>
      <trkpt lat="44.0164" lon="5.32758">
        <ele>839.46496582031</ele>
        <time>2020-01-16T19:21:54.379Z</time>
      </trkpt>
      <trkpt lat="44.01641" lon="5.32759">
        <ele>839.45819091797</ele>
        <time>2020-01-16T19:21:55.145Z</time>
      </trkpt>
      <trkpt lat="44.01655" lon="5.32806">
        <ele>838.31762695312</ele>
        <time>2020-01-16T19:21:55.919Z</time>
      </trkpt>
      <trkpt lat="44.01655" lon="5.32807">
        <ele>838.28515625</ele>
        <time>2020-01-16T19:21:56.693Z</time>
      </trkpt>
      <trkpt lat="44.01654" lon="5.32838">
        <ele>835.32440185547</ele>
        <time>2020-01-16T19:21:57.471Z</time>
      </trkpt>
      <trkpt lat="44.01654" lon="5.32838">
        <ele>835.28021240234</ele>
        <time>2020-01-16T19:21:58.249Z</time>
      </trkpt>
      <trkpt lat="44.01689" lon="5.32882">
        <ele>832.65667724609</ele>
        <time>2020-01-16T19:21:59.037Z</time>
      </trkpt>
      <trkpt lat="44.01689" lon="5.32882">
        <ele>832.63946533203</ele>
        <time>2020-01-16T19:21:59.825Z</time>
      </trkpt>
      <trkpt lat="44.01699" lon="5.32908">
        <ele>830.34869384766</ele>
        <time>2020-01-16T19:22:00.617Z</time>
      </trkpt>
      <trkpt lat="44.017" lon="5.32909">
        <ele>830.31024169922</ele>
        <time>2020-01-16T19:22:01.409Z</time>
      </trkpt>
      <trkpt lat="44.01728" lon="5.32959">
        <ele>826.26489257812</ele>
        <time>2020-01-16T19:22:02.210Z</time>
      </trkpt>
      <trkpt lat="44.01728" lon="5.32959">
        <ele>826.23522949219</ele>
        <time>2020-01-16T19:22:03.012Z</time>
      </trkpt>
      <trkpt lat="44.01778" lon="5.33012">
        <ele>818.97338867188</ele>
        <time>2020-01-16T19:22:03.826Z</time>
      </trkpt>
      <trkpt lat="44.01779" lon="5.33012">
        <ele>818.93463134766</ele>
        <time>2020-01-16T19:22:04.640Z</time>
      </trkpt>
      <trkpt lat="44.01776" lon="5.33048">
        <ele>812.06909179688</ele>
        <time>2020-01-16T19:22:05.459Z</time>
      </trkpt>
      <trkpt lat="44.01776" lon="5.33049">
        <ele>812.02648925781</ele>
        <time>2020-01-16T19:22:06.278Z</time>
      </trkpt>
      <trkpt lat="44.01766" lon="5.3307">
        <ele>809.83325195312</ele>
        <time>2020-01-16T19:22:07.101Z</time>
      </trkpt>
      <trkpt lat="44.01766" lon="5.33071">
        <ele>809.79241943359</ele>
        <time>2020-01-16T19:22:07.924Z</time>
      </trkpt>
      <trkpt lat="44.01761" lon="5.33085">
        <ele>808.48962402344</ele>
        <time>2020-01-16T19:22:08.750Z</time>
      </trkpt>
      <trkpt lat="44.01761" lon="5.33085">
        <ele>808.44641113281</ele>
        <time>2020-01-16T19:22:09.576Z</time>
      </trkpt>
      <trkpt lat="44.01786" lon="5.33105">
        <ele>808.76763916016</ele>
        <time>2020-01-16T19:22:10.407Z</time>
      </trkpt>
      <trkpt lat="44.01786" lon="5.33105">
        <ele>808.80010986328</ele>
        <time>2020-01-16T19:22:11.238Z</time>
      </trkpt>
      <trkpt lat="44.01809" lon="5.3315">
        <ele>812.49334716797</ele>
        <time>2020-01-16T19:22:12.077Z</time>
      </trkpt>
      <trkpt lat="44.01809" lon="5.3315">
        <ele>812.57379150391</ele>
        <time>2020-01-16T19:22:12.916Z</time>
      </trkpt>
      <trkpt lat="44.01806" lon="5.33201">
        <ele>816.36511230469</ele>
        <time>2020-01-16T19:22:13.763Z</time>
      </trkpt>
      <trkpt lat="44.01806" lon="5.33202">
        <ele>816.39208984375</ele>
        <time>2020-01-16T19:22:14.610Z</time>
      </trkpt>
      <trkpt lat="44.01794" lon="5.3324">
        <ele>817.63073730469</ele>
        <time>2020-01-16T19:22:15.463Z</time>
      </trkpt>
      <trkpt lat="44.01794" lon="5.33241">
        <ele>817.64434814453</ele>
        <time>2020-01-16T19:22:16.316Z</time>
      </trkpt>
      <trkpt lat="44.0178" lon="5.33276">
        <ele>817.95611572266</ele>
        <time>2020-01-16T19:22:17.175Z</time>
      </trkpt>
      <trkpt lat="44.0178" lon="5.33276">
        <ele>817.96014404297</ele>
        <time>2020-01-16T19:22:18.034Z</time>
      </trkpt>
      <trkpt lat="44.01771" lon="5.333">
        <ele>819.10711669922</ele>
        <time>2020-01-16T19:22:18.897Z</time>
      </trkpt>
      <trkpt lat="44.01771" lon="5.33301">
        <ele>819.14544677734</ele>
        <time>2020-01-16T19:22:19.760Z</time>
      </trkpt>
      <trkpt lat="44.01761" lon="5.3339">
        <ele>826.89642333984</ele>
        <time>2020-01-16T19:22:20.636Z</time>
      </trkpt>
      <trkpt lat="44.01761" lon="5.3339">
        <ele>826.92590332031</ele>
        <time>2020-01-16T19:22:21.512Z</time>
      </trkpt>
      <trkpt lat="44.01767" lon="5.33401">
        <ele>828.25598144531</ele>
        <time>2020-01-16T19:22:22.390Z</time>
      </trkpt>
      <trkpt lat="44.01767" lon="5.33402">
        <ele>828.310546875</ele>
        <time>2020-01-16T19:22:23.268Z</time>
      </trkpt>
      <trkpt lat="44.01761" lon="5.3343">
        <ele>830.24560546875</ele>
        <time>2020-01-16T19:22:24.150Z</time>
      </trkpt>
      <trkpt lat="44.01761" lon="5.3343">
        <ele>830.28179931641</ele>
        <time>2020-01-16T19:22:25.032Z</time>
      </trkpt>
      <trkpt lat="44.01731" lon="5.33448">
        <ele>830.70147705078</ele>
        <time>2020-01-16T19:22:25.921Z</time>
      </trkpt>
      <trkpt lat="44.0173" lon="5.33448">
        <ele>830.7138671875</ele>
        <time>2020-01-16T19:22:26.810Z</time>
      </trkpt>
      <trkpt lat="44.01679" lon="5.33469">
        <ele>830.08660888672</ele>
        <time>2020-01-16T19:22:27.710Z</time>
      </trkpt>
      <trkpt lat="44.01678" lon="5.33469">
        <ele>830.05364990234</ele>
        <time>2020-01-16T19:22:28.610Z</time>
      </trkpt>
      <trkpt lat="44.01702" lon="5.33496">
        <ele>832.26690673828</ele>
        <time>2020-01-16T19:22:29.516Z</time>
      </trkpt>
      <trkpt lat="44.01702" lon="5.33496">
        <ele>832.28521728516</ele>
        <time>2020-01-16T19:22:30.422Z</time>
      </trkpt>
      <trkpt lat="44.01731" lon="5.33538">
        <ele>834.13842773438</ele>
        <time>2020-01-16T19:22:31.336Z</time>
      </trkpt>
      <trkpt lat="44.01731" lon="5.33539">
        <ele>834.15771484375</ele>
        <time>2020-01-16T19:22:32.250Z</time>
      </trkpt>
      <trkpt lat="44.01737" lon="5.33547">
        <ele>834.53930664062</ele>
        <time>2020-01-16T19:22:33.166Z</time>
      </trkpt>
      <trkpt lat="44.01737" lon="5.33548">
        <ele>834.49475097656</ele>
        <time>2020-01-16T19:22:34.082Z</time>
      </trkpt>
      <trkpt lat="44.01716" lon="5.33581">
        <ele>830.35614013672</ele>
        <time>2020-01-16T19:22:35.005Z</time>
      </trkpt>
      <trkpt lat="44.01716" lon="5.33581">
        <ele>830.30548095703</ele>
        <time>2020-01-16T19:22:35.928Z</time>
      </trkpt>
      <trkpt lat="44.0171" lon="5.33608">
        <ele>827.47210693359</ele>
        <time>2020-01-16T19:22:36.855Z</time>
      </trkpt>
      <trkpt lat="44.0171" lon="5.33608">
        <ele>827.4091796875</ele>
        <time>2020-01-16T19:22:37.782Z</time>
      </trkpt>
      <trkpt lat="44.01715" lon="5.33633">
        <ele>824.75085449219</ele>
        <time>2020-01-16T19:22:38.712Z</time>
      </trkpt>
      <trkpt lat="44.01715" lon="5.33634">
        <ele>824.68664550781</ele>
        <time>2020-01-16T19:22:39.642Z</time>
      </trkpt>
      <trkpt lat="44.017" lon="5.33692">
        <ele>815.81610107422</ele>
        <time>2020-01-16T19:22:40.581Z</time>
      </trkpt>
      <trkpt lat="44.017" lon="5.33693">
        <ele>815.7275390625</ele>
        <time>2020-01-16T19:22:41.521Z</time>
      </trkpt>
      <trkpt lat="44.01717" lon="5.3371">
        <ele>813.84417724609</ele>
        <time>2020-01-16T19:22:42.465Z</time>
      </trkpt>
      <trkpt lat="44.01717" lon="5.3371">
        <ele>813.79956054688</ele>
        <time>2020-01-16T19:22:43.409Z</time>
      </trkpt>
      <trkpt lat="44.01716" lon="5.33727">
        <ele>812.18786621094</ele>
        <time>2020-01-16T19:22:44.355Z</time>
      </trkpt>
      <trkpt lat="44.01716" lon="5.33728">
        <ele>812.13751220703</ele>
        <time>2020-01-16T19:22:45.301Z</time>
      </trkpt>
      <trkpt lat="44.01692" lon="5.33751">
        <ele>806.64678955078</ele>
        <time>2020-01-16T19:22:46.253Z</time>
      </trkpt>
      <trkpt lat="44.01691" lon="5.33752">
        <ele>806.57305908203</ele>
        <time>2020-01-16T19:22:47.205Z</time>
      </trkpt>
      <trkpt lat="44.01614" lon="5.33789">
        <ele>798.32830810547</ele>
        <time>2020-01-16T19:22:48.174Z</time>
      </trkpt>
      <trkpt lat="44.01613" lon="5.3379">
        <ele>798.27062988281</ele>
        <time>2020-01-16T19:22:49.143Z</time>
      </trkpt>
      <trkpt lat="44.01572" lon="5.33827">
        <ele>794.97387695312</ele>
        <time>2020-01-16T19:22:50.122Z</time>
      </trkpt>
      <trkpt lat="44.01572" lon="5.33828">
        <ele>794.94848632812</ele>
        <time>2020-01-16T19:22:51.101Z</time>
      </trkpt>
      <trkpt lat="44.01557" lon="5.33884">
        <ele>791.86309814453</ele>
        <time>2020-01-16T19:22:52.089Z</time>
      </trkpt>
      <trkpt lat="44.01557" lon="5.33885">
        <ele>791.84704589844</ele>
        <time>2020-01-16T19:22:53.077Z</time>
      </trkpt>
      <trkpt lat="44.01522" lon="5.33951">
        <ele>788.93566894531</ele>
        <time>2020-01-16T19:22:54.077Z</time>
      </trkpt>
      <trkpt lat="44.01521" lon="5.33952">
        <ele>788.91339111328</ele>
        <time>2020-01-16T19:22:55.077Z</time>
      </trkpt>
      <trkpt lat="44.01505" lon="5.34017">
        <ele>788.65893554688</ele>
        <time>2020-01-16T19:22:56.087Z</time>
      </trkpt>
      <trkpt lat="44.01505" lon="5.34018">
        <ele>788.65893554688</ele>
        <time>2020-01-16T19:22:57.097Z</time>
      </trkpt>
      <trkpt lat="44.01414" lon="5.34104">
        <ele>781.34875488281</ele>
        <time>2020-01-16T19:22:58.129Z</time>
      </trkpt>
      <trkpt lat="44.01414" lon="5.34104">
        <ele>781.35876464844</ele>
        <time>2020-01-16T19:22:59.161Z</time>
      </trkpt>
      <trkpt lat="44.01391" lon="5.34196">
        <ele>778.49407958984</ele>
        <time>2020-01-16T19:23:00.207Z</time>
      </trkpt>
      <trkpt lat="44.01391" lon="5.34196">
        <ele>778.46099853516</ele>
        <time>2020-01-16T19:23:01.253Z</time>
      </trkpt>
      <trkpt lat="44.01383" lon="5.3433">
        <ele>769.31372070312</ele>
        <time>2020-01-16T19:23:02.318Z</time>
      </trkpt>
      <trkpt lat="44.01383" lon="5.3433">
        <ele>769.29187011719</ele>
        <time>2020-01-16T19:23:03.383Z</time>
      </trkpt>
      <trkpt lat="44.01331" lon="5.34433">
        <ele>762.8466796875</ele>
        <time>2020-01-16T19:23:04.466Z</time>
      </trkpt>
      <trkpt lat="44.01331" lon="5.34433">
        <ele>762.81707763672</ele>
        <time>2020-01-16T19:23:05.549Z</time>
      </trkpt>
      <trkpt lat="44.01306" lon="5.34497">
        <ele>759.80981445312</ele>
        <time>2020-01-16T19:23:06.643Z</time>
      </trkpt>
      <trkpt lat="44.01306" lon="5.34498">
        <ele>759.78924560547</ele>
        <time>2020-01-16T19:23:07.737Z</time>
      </trkpt>
      <trkpt lat="44.01356" lon="5.34567">
        <ele>756.59411621094</ele>
        <time>2020-01-16T19:23:08.845Z</time>
      </trkpt>
      <trkpt lat="44.01357" lon="5.34567">
        <ele>756.55822753906</ele>
        <time>2020-01-16T19:23:09.953Z</time>
      </trkpt>
      <trkpt lat="44.01404" lon="5.34576">
        <ele>756.63214111328</ele>
        <time>2020-01-16T19:23:11.071Z</time>
      </trkpt>
      <trkpt lat="44.01404" lon="5.34576">
        <ele>756.62689208984</ele>
        <time>2020-01-16T19:23:12.189Z</time>
      </trkpt>
      <trkpt lat="44.01434" lon="5.34624">
        <ele>754.27185058594</ele>
        <time>2020-01-16T19:23:13.316Z</time>
      </trkpt>
      <trkpt lat="44.01434" lon="5.34625">
        <ele>754.23999023438</ele>
        <time>2020-01-16T19:23:14.443Z</time>
      </trkpt>
      <trkpt lat="44.01438" lon="5.34655">
        <ele>753.32055664062</ele>
        <time>2020-01-16T19:23:15.575Z</time>
      </trkpt>
      <trkpt lat="44.01438" lon="5.34655">
        <ele>753.30541992188</ele>
        <time>2020-01-16T19:23:16.707Z</time>
      </trkpt>
      <trkpt lat="44.01468" lon="5.3474">
        <ele>753.25872802734</ele>
        <time>2020-01-16T19:23:17.852Z</time>
      </trkpt>
      <trkpt lat="44.01468" lon="5.3474">
        <ele>753.259765625</ele>
        <time>2020-01-16T19:23:18.997Z</time>
      </trkpt>
      <trkpt lat="44.01369" lon="5.3479">
        <ele>747.55358886719</ele>
        <time>2020-01-16T19:23:20.163Z</time>
      </trkpt>
      <trkpt lat="44.01369" lon="5.34791">
        <ele>747.52447509766</ele>
        <time>2020-01-16T19:23:21.329Z</time>
      </trkpt>
      <trkpt lat="44.01247" lon="5.3477">
        <ele>745.64233398438</ele>
        <time>2020-01-16T19:23:22.520Z</time>
      </trkpt>
      <trkpt lat="44.01246" lon="5.3477">
        <ele>745.62426757812</ele>
        <time>2020-01-16T19:23:23.711Z</time>
      </trkpt>
      <trkpt lat="44.01125" lon="5.34733">
        <ele>742.69244384766</ele>
        <time>2020-01-16T19:23:24.927Z</time>
      </trkpt>
      <trkpt lat="44.01124" lon="5.34733">
        <ele>742.68334960938</ele>
        <time>2020-01-16T19:23:26.143Z</time>
      </trkpt>
      <trkpt lat="44.00984" lon="5.3468">
        <ele>739.99212646484</ele>
        <time>2020-01-16T19:23:27.388Z</time>
      </trkpt>
      <trkpt lat="44.00983" lon="5.3468">
        <ele>740.00854492188</ele>
        <time>2020-01-16T19:23:28.633Z</time>
      </trkpt>
      <trkpt lat="44.00802" lon="5.3464">
        <ele>745.36578369141</ele>
        <time>2020-01-16T19:23:29.915Z</time>
      </trkpt>
      <trkpt lat="44.00801" lon="5.34639">
        <ele>745.38098144531</ele>
        <time>2020-01-16T19:23:31.197Z</time>
      </trkpt>
      <trkpt lat="44.00695" lon="5.3461">
        <ele>746.25537109375</ele>
        <time>2020-01-16T19:23:32.501Z</time>
      </trkpt>
      <trkpt lat="44.00695" lon="5.34609">
        <ele>746.25769042969</ele>
        <time>2020-01-16T19:23:33.805Z</time>
      </trkpt>
      <trkpt lat="44.00668" lon="5.34687">
        <ele>743.68768310547</ele>
        <time>2020-01-16T19:23:35.121Z</time>
      </trkpt>
      <trkpt lat="44.00668" lon="5.34688">
        <ele>743.66302490234</ele>
        <time>2020-01-16T19:23:36.438Z</time>
      </trkpt>
      <trkpt lat="44.00667" lon="5.34702">
        <ele>743.59948730469</ele>
        <time>2020-01-16T19:23:37.757Z</time>
      </trkpt>
      <trkpt lat="44.00667" lon="5.34703">
        <ele>743.60046386719</ele>
        <time>2020-01-16T19:23:39.076Z</time>
      </trkpt>
      <trkpt lat="44.00654" lon="5.34718">
        <ele>743.80670166016</ele>
        <time>2020-01-16T19:23:40.398Z</time>
      </trkpt>
      <trkpt lat="44.00654" lon="5.34719">
        <ele>743.80462646484</ele>
        <time>2020-01-16T19:23:41.720Z</time>
      </trkpt>
      <trkpt lat="44.00629" lon="5.34788">
        <ele>743.38293457031</ele>
        <time>2020-01-16T19:23:43.053Z</time>
      </trkpt>
      <trkpt lat="44.00629" lon="5.34788">
        <ele>743.38354492188</ele>
        <time>2020-01-16T19:23:44.386Z</time>
      </trkpt>
      <trkpt lat="44.00629" lon="5.34808">
        <ele>743.00860595703</ele>
        <time>2020-01-16T19:23:45.722Z</time>
      </trkpt>
      <trkpt lat="44.00629" lon="5.34809">
        <ele>742.98846435547</ele>
        <time>2020-01-16T19:23:47.058Z</time>
      </trkpt>
      <trkpt lat="44.00598" lon="5.34921">
        <ele>738.72143554688</ele>
        <time>2020-01-16T19:23:48.412Z</time>
      </trkpt>
      <trkpt lat="44.00598" lon="5.34922">
        <ele>738.68786621094</ele>
        <time>2020-01-16T19:23:49.766Z</time>
      </trkpt>
      <trkpt lat="44.00576" lon="5.34929">
        <ele>738.47528076172</ele>
        <time>2020-01-16T19:23:51.124Z</time>
      </trkpt>
      <trkpt lat="44.00576" lon="5.3493">
        <ele>738.46899414062</ele>
        <time>2020-01-16T19:23:52.482Z</time>
      </trkpt>
      <trkpt lat="44.00553" lon="5.34923">
        <ele>739.47802734375</ele>
        <time>2020-01-16T19:23:53.845Z</time>
      </trkpt>
      <trkpt lat="44.00553" lon="5.34923">
        <ele>739.50830078125</ele>
        <time>2020-01-16T19:23:55.208Z</time>
      </trkpt>
      <trkpt lat="44.00469" lon="5.34871">
        <ele>740.09552001953</ele>
        <time>2020-01-16T19:23:56.589Z</time>
      </trkpt>
      <trkpt lat="44.00468" lon="5.34871">
        <ele>740.07763671875</ele>
        <time>2020-01-16T19:23:57.971Z</time>
      </trkpt>
      <trkpt lat="44.00449" lon="5.34829">
        <ele>739.90100097656</ele>
        <time>2020-01-16T19:23:59.360Z</time>
      </trkpt>
      <trkpt lat="44.00449" lon="5.34828">
        <ele>739.89807128906</ele>
        <time>2020-01-16T19:24:00.749Z</time>
      </trkpt>
      <trkpt lat="44.00357" lon="5.34741">
        <ele>736.58984375</ele>
        <time>2020-01-16T19:24:02.160Z</time>
      </trkpt>
      <trkpt lat="44.00357" lon="5.3474">
        <ele>736.55865478516</ele>
        <time>2020-01-16T19:24:03.571Z</time>
      </trkpt>
      <trkpt lat="44.00342" lon="5.34725">
        <ele>735.64874267578</ele>
        <time>2020-01-16T19:24:04.986Z</time>
      </trkpt>
      <trkpt lat="44.00341" lon="5.34724">
        <ele>735.61694335938</ele>
        <time>2020-01-16T19:24:06.401Z</time>
      </trkpt>
      <trkpt lat="44.00334" lon="5.34742">
        <ele>735.79650878906</ele>
        <time>2020-01-16T19:24:07.819Z</time>
      </trkpt>
      <trkpt lat="44.00334" lon="5.34742">
        <ele>735.80462646484</ele>
        <time>2020-01-16T19:24:09.237Z</time>
      </trkpt>
      <trkpt lat="44.00337" lon="5.34775">
        <ele>736.69079589844</ele>
        <time>2020-01-16T19:24:10.660Z</time>
      </trkpt>
      <trkpt lat="44.00337" lon="5.34776">
        <ele>736.71380615234</ele>
        <time>2020-01-16T19:24:12.083Z</time>
      </trkpt>
      <trkpt lat="44.0031" lon="5.34807">
        <ele>735.55895996094</ele>
        <time>2020-01-16T19:24:13.513Z</time>
      </trkpt>
      <trkpt lat="44.00309" lon="5.34808">
        <ele>735.52789306641</ele>
        <time>2020-01-16T19:24:14.943Z</time>
      </trkpt>
      <trkpt lat="44.00248" lon="5.3478">
        <ele>733.66284179688</ele>
        <time>2020-01-16T19:24:16.386Z</time>
      </trkpt>
      <trkpt lat="44.00248" lon="5.3478">
        <ele>733.64935302734</ele>
        <time>2020-01-16T19:24:17.829Z</time>
      </trkpt>
      <trkpt lat="44.00197" lon="5.34766">
        <ele>732.30889892578</ele>
        <time>2020-01-16T19:24:19.283Z</time>
      </trkpt>
      <trkpt lat="44.00196" lon="5.34766">
        <ele>732.29028320312</ele>
        <time>2020-01-16T19:24:20.737Z</time>
      </trkpt>
      <trkpt lat="44.00024" lon="5.34782">
        <ele>730.73254394531</ele>
        <time>2020-01-16T19:24:22.225Z</time>
      </trkpt>
      <trkpt lat="44.00023" lon="5.34782">
        <ele>730.71850585938</ele>
        <time>2020-01-16T19:24:23.713Z</time>
      </trkpt>
      <trkpt lat="43.99839" lon="5.34599">
        <ele>731.0107421875</ele>
        <time>2020-01-16T19:24:25.247Z</time>
      </trkpt>
      <trkpt lat="43.99839" lon="5.34599">
        <ele>730.99176025391</ele>
        <time>2020-01-16T19:24:26.781Z</time>
      </trkpt>
      <trkpt lat="43.9976" lon="5.34505">
        <ele>728.31378173828</ele>
        <time>2020-01-16T19:24:28.335Z</time>
      </trkpt>
      <trkpt lat="43.9976" lon="5.34504">
        <ele>728.30090332031</ele>
        <time>2020-01-16T19:24:29.890Z</time>
      </trkpt>
      <trkpt lat="43.99663" lon="5.34445">
        <ele>726.79290771484</ele>
        <time>2020-01-16T19:24:31.466Z</time>
      </trkpt>
      <trkpt lat="43.99663" lon="5.34444">
        <ele>726.78662109375</ele>
        <time>2020-01-16T19:24:33.042Z</time>
      </trkpt>
      <trkpt lat="43.99568" lon="5.34412">
        <ele>724.30297851562</ele>
        <time>2020-01-16T19:24:34.637Z</time>
      </trkpt>
      <trkpt lat="43.99567" lon="5.34412">
        <ele>724.2724609375</ele>
        <time>2020-01-16T19:24:36.233Z</time>
      </trkpt>
      <trkpt lat="43.99415" lon="5.34347">
        <ele>715.5205078125</ele>
        <time>2020-01-16T19:24:37.860Z</time>
      </trkpt>
      <trkpt lat="43.99415" lon="5.34346">
        <ele>715.46783447266</ele>
        <time>2020-01-16T19:24:39.488Z</time>
      </trkpt>
      <trkpt lat="43.99375" lon="5.34315">
        <ele>712.93536376953</ele>
        <time>2020-01-16T19:24:41.125Z</time>
      </trkpt>
      <trkpt lat="43.99375" lon="5.34315">
        <ele>712.87951660156</ele>
        <time>2020-01-16T19:24:42.762Z</time>
      </trkpt>
      <trkpt lat="43.99345" lon="5.3431">
        <ele>709.54132080078</ele>
        <time>2020-01-16T19:24:44.405Z</time>
      </trkpt>
      <trkpt lat="43.99344" lon="5.3431">
        <ele>709.52252197266</ele>
        <time>2020-01-16T19:24:46.048Z</time>
      </trkpt>
      <trkpt lat="43.99268" lon="5.34273">
        <ele>708.32623291016</ele>
        <time>2020-01-16T19:24:47.707Z</time>
      </trkpt>
      <trkpt lat="43.99267" lon="5.34273">
        <ele>708.30822753906</ele>
        <time>2020-01-16T19:24:49.366Z</time>
      </trkpt>
      <trkpt lat="43.99231" lon="5.34256">
        <ele>707.20452880859</ele>
        <time>2020-01-16T19:24:51.033Z</time>
      </trkpt>
      <trkpt lat="43.99231" lon="5.34255">
        <ele>707.14306640625</ele>
        <time>2020-01-16T19:24:52.700Z</time>
      </trkpt>
      <trkpt lat="43.99163" lon="5.34264">
        <ele>699.76940917969</ele>
        <time>2020-01-16T19:24:54.381Z</time>
      </trkpt>
      <trkpt lat="43.99162" lon="5.34264">
        <ele>699.75408935547</ele>
        <time>2020-01-16T19:24:56.062Z</time>
      </trkpt>
      <trkpt lat="43.9906" lon="5.34277">
        <ele>702.16247558594</ele>
        <time>2020-01-16T19:24:57.763Z</time>
      </trkpt>
      <trkpt lat="43.9906" lon="5.34277">
        <ele>702.24792480469</ele>
        <time>2020-01-16T19:24:59.464Z</time>
      </trkpt>
      <trkpt lat="43.98888" lon="5.34274">
        <ele>714.03314208984</ele>
        <time>2020-01-16T19:25:01.200Z</time>
      </trkpt>
      <trkpt lat="43.98887" lon="5.34274">
        <ele>714.16394042969</ele>
        <time>2020-01-16T19:25:02.936Z</time>
      </trkpt>
      <trkpt lat="43.98758" lon="5.34299">
        <ele>731.42687988281</ele>
        <time>2020-01-16T19:25:04.698Z</time>
      </trkpt>
      <trkpt lat="43.98757" lon="5.34299">
        <ele>731.55792236328</ele>
        <time>2020-01-16T19:25:06.460Z</time>
      </trkpt>
      <trkpt lat="43.9867" lon="5.34311">
        <ele>741.75366210938</ele>
        <time>2020-01-16T19:25:08.240Z</time>
      </trkpt>
      <trkpt lat="43.98669" lon="5.34311">
        <ele>741.75244140625</ele>
        <time>2020-01-16T19:25:10.020Z</time>
      </trkpt>
      <trkpt lat="43.98605" lon="5.34253">
        <ele>736.88909912109</ele>
        <time>2020-01-16T19:25:11.815Z</time>
      </trkpt>
      <trkpt lat="43.98604" lon="5.34252">
        <ele>736.86798095703</ele>
        <time>2020-01-16T19:25:13.610Z</time>
      </trkpt>
      <trkpt lat="43.98574" lon="5.34243">
        <ele>736.27587890625</ele>
        <time>2020-01-16T19:25:15.411Z</time>
      </trkpt>
      <trkpt lat="43.98573" lon="5.34242">
        <ele>736.26116943359</ele>
        <time>2020-01-16T19:25:17.213Z</time>
      </trkpt>
      <trkpt lat="43.98542" lon="5.34224">
        <ele>735.42736816406</ele>
        <time>2020-01-16T19:25:19.021Z</time>
      </trkpt>
      <trkpt lat="43.98541" lon="5.34223">
        <ele>735.40875244141</ele>
        <time>2020-01-16T19:25:20.830Z</time>
      </trkpt>
      <trkpt lat="43.98488" lon="5.34208">
        <ele>735.41583251953</ele>
        <time>2020-01-16T19:25:22.649Z</time>
      </trkpt>
      <trkpt lat="43.98488" lon="5.34208">
        <ele>735.43188476562</ele>
        <time>2020-01-16T19:25:24.469Z</time>
      </trkpt>
      <trkpt lat="43.98472" lon="5.34197">
        <ele>736.24530029297</ele>
        <time>2020-01-16T19:25:26.292Z</time>
      </trkpt>
      <trkpt lat="43.98472" lon="5.34196">
        <ele>736.28143310547</ele>
        <time>2020-01-16T19:25:28.115Z</time>
      </trkpt>
      <trkpt lat="43.98457" lon="5.34198">
        <ele>736.17156982422</ele>
        <time>2020-01-16T19:25:29.941Z</time>
      </trkpt>
      <trkpt lat="43.98457" lon="5.34198">
        <ele>736.16558837891</ele>
        <time>2020-01-16T19:25:31.767Z</time>
      </trkpt>
      <trkpt lat="43.98441" lon="5.34202">
        <ele>735.85662841797</ele>
        <time>2020-01-16T19:25:33.596Z</time>
      </trkpt>
      <trkpt lat="43.9844" lon="5.34202">
        <ele>735.82391357422</ele>
        <time>2020-01-16T19:25:35.426Z</time>
      </trkpt>
      <trkpt lat="43.984" lon="5.34191">
        <ele>735.04583740234</ele>
        <time>2020-01-16T19:25:37.264Z</time>
      </trkpt>
      <trkpt lat="43.98399" lon="5.3419">
        <ele>735.02301025391</ele>
        <time>2020-01-16T19:25:39.102Z</time>
      </trkpt>
      <trkpt lat="43.98315" lon="5.34187">
        <ele>728.97076416016</ele>
        <time>2020-01-16T19:25:40.957Z</time>
      </trkpt>
      <trkpt lat="43.98314" lon="5.34187">
        <ele>728.90106201172</ele>
        <time>2020-01-16T19:25:42.812Z</time>
      </trkpt>
      <trkpt lat="43.98299" lon="5.34175">
        <ele>728.73132324219</ele>
        <time>2020-01-16T19:25:44.670Z</time>
      </trkpt>
      <trkpt lat="43.98298" lon="5.34175">
        <ele>728.72381591797</ele>
        <time>2020-01-16T19:25:46.529Z</time>
      </trkpt>
      <trkpt lat="43.98293" lon="5.34165">
        <ele>729.23193359375</ele>
        <time>2020-01-16T19:25:48.389Z</time>
      </trkpt>
      <trkpt lat="43.98293" lon="5.34165">
        <ele>729.28063964844</ele>
        <time>2020-01-16T19:25:50.249Z</time>
      </trkpt>
      <trkpt lat="43.98227" lon="5.34122">
        <ele>726.09393310547</ele>
        <time>2020-01-16T19:25:52.124Z</time>
      </trkpt>
      <trkpt lat="43.98226" lon="5.34121">
        <ele>726.05053710938</ele>
        <time>2020-01-16T19:25:53.999Z</time>
      </trkpt>
      <trkpt lat="43.98158" lon="5.34035">
        <ele>723.34814453125</ele>
        <time>2020-01-16T19:25:55.893Z</time>
      </trkpt>
      <trkpt lat="43.98158" lon="5.34034">
        <ele>723.28430175781</ele>
        <time>2020-01-16T19:25:57.787Z</time>
      </trkpt>
      <trkpt lat="43.98132" lon="5.33955">
        <ele>722.47888183594</ele>
        <time>2020-01-16T19:25:59.693Z</time>
      </trkpt>
      <trkpt lat="43.98131" lon="5.33954">
        <ele>722.48309326172</ele>
        <time>2020-01-16T19:26:01.599Z</time>
      </trkpt>
      <trkpt lat="43.98107" lon="5.33917">
        <ele>720.67291259766</ele>
        <time>2020-01-16T19:26:03.513Z</time>
      </trkpt>
      <trkpt lat="43.98107" lon="5.33916">
        <ele>720.59149169922</ele>
        <time>2020-01-16T19:26:05.427Z</time>
      </trkpt>
      <trkpt lat="43.98081" lon="5.33897">
        <ele>715.28765869141</ele>
        <time>2020-01-16T19:26:07.347Z</time>
      </trkpt>
      <trkpt lat="43.98081" lon="5.33897">
        <ele>715.13647460938</ele>
        <time>2020-01-16T19:26:09.267Z</time>
      </trkpt>
      <trkpt lat="43.9766" lon="5.34157">
        <ele>621.18615722656</ele>
        <time>2020-01-16T19:26:11.279Z</time>
      </trkpt>
      <trkpt lat="43.9766" lon="5.34158">
        <ele>620.93908691406</ele>
        <time>2020-01-16T19:26:13.291Z</time>
      </trkpt>
      <trkpt lat="43.97501" lon="5.34245">
        <ele>578.65893554688</ele>
        <time>2020-01-16T19:26:15.337Z</time>
      </trkpt>
      <trkpt lat="43.975" lon="5.34246">
        <ele>578.32281494141</ele>
        <time>2020-01-16T19:26:17.383Z</time>
      </trkpt>
      <trkpt lat="43.97457" lon="5.34225">
        <ele>573.95233154297</ele>
        <time>2020-01-16T19:26:19.438Z</time>
      </trkpt>
      <trkpt lat="43.97456" lon="5.34224">
        <ele>573.86889648438</ele>
        <time>2020-01-16T19:26:21.494Z</time>
      </trkpt>
      <trkpt lat="43.97407" lon="5.3421">
        <ele>560.994140625</ele>
        <time>2020-01-16T19:26:23.560Z</time>
      </trkpt>
      <trkpt lat="43.97406" lon="5.3421">
        <ele>560.734375</ele>
        <time>2020-01-16T19:26:25.626Z</time>
      </trkpt>
      <trkpt lat="43.97377" lon="5.34154">
        <ele>566.43621826172</ele>
        <time>2020-01-16T19:26:27.702Z</time>
      </trkpt>
      <trkpt lat="43.97377" lon="5.34153">
        <ele>566.52569580078</ele>
        <time>2020-01-16T19:26:29.778Z</time>
      </trkpt>
      <trkpt lat="43.97343" lon="5.34128">
        <ele>561.29815673828</ele>
        <time>2020-01-16T19:26:31.862Z</time>
      </trkpt>
      <trkpt lat="43.97342" lon="5.34128">
        <ele>561.17370605469</ele>
        <time>2020-01-16T19:26:33.946Z</time>
      </trkpt>
      <trkpt lat="43.97305" lon="5.34018">
        <ele>569.78631591797</ele>
        <time>2020-01-16T19:26:36.047Z</time>
      </trkpt>
      <trkpt lat="43.97305" lon="5.34017">
        <ele>569.72967529297</ele>
        <time>2020-01-16T19:26:38.148Z</time>
      </trkpt>
      <trkpt lat="43.9731" lon="5.33987">
        <ele>572.76898193359</ele>
        <time>2020-01-16T19:26:40.254Z</time>
      </trkpt>
      <trkpt lat="43.97311" lon="5.33986">
        <ele>572.87017822266</ele>
        <time>2020-01-16T19:26:42.360Z</time>
      </trkpt>
      <trkpt lat="43.97282" lon="5.33957">
        <ele>565.26519775391</ele>
        <time>2020-01-16T19:26:44.473Z</time>
      </trkpt>
      <trkpt lat="43.97281" lon="5.33956">
        <ele>565.12573242188</ele>
        <time>2020-01-16T19:26:46.586Z</time>
      </trkpt>
      <trkpt lat="43.97261" lon="5.33874">
        <ele>567.15728759766</ele>
        <time>2020-01-16T19:26:48.712Z</time>
      </trkpt>
      <trkpt lat="43.97261" lon="5.33873">
        <ele>567.142578125</ele>
        <time>2020-01-16T19:26:50.838Z</time>
      </trkpt>
      <trkpt lat="43.97222" lon="5.33813">
        <ele>555.52917480469</ele>
        <time>2020-01-16T19:26:52.976Z</time>
      </trkpt>
      <trkpt lat="43.97221" lon="5.33812">
        <ele>555.36248779297</ele>
        <time>2020-01-16T19:26:55.114Z</time>
      </trkpt>
      <trkpt lat="43.97205" lon="5.33786">
        <ele>551.71008300781</ele>
        <time>2020-01-16T19:26:57.257Z</time>
      </trkpt>
      <trkpt lat="43.97205" lon="5.33785">
        <ele>551.62493896484</ele>
        <time>2020-01-16T19:26:59.400Z</time>
      </trkpt>
      <trkpt lat="43.97217" lon="5.3373">
        <ele>562.28424072266</ele>
        <time>2020-01-16T19:27:01.551Z</time>
      </trkpt>
      <trkpt lat="43.97217" lon="5.33728">
        <ele>562.35552978516</ele>
        <time>2020-01-16T19:27:03.702Z</time>
      </trkpt>
      <trkpt lat="43.97164" lon="5.33689">
        <ele>554.39440917969</ele>
        <time>2020-01-16T19:27:05.865Z</time>
      </trkpt>
      <trkpt lat="43.97163" lon="5.33689">
        <ele>554.31658935547</ele>
        <time>2020-01-16T19:27:08.029Z</time>
      </trkpt>
      <trkpt lat="43.97152" lon="5.33617">
        <ele>563.48773193359</ele>
        <time>2020-01-16T19:27:10.203Z</time>
      </trkpt>
      <trkpt lat="43.97152" lon="5.33616">
        <ele>563.47741699219</ele>
        <time>2020-01-16T19:27:12.377Z</time>
      </trkpt>
      <trkpt lat="43.97177" lon="5.33507">
        <ele>571.05279541016</ele>
        <time>2020-01-16T19:27:14.568Z</time>
      </trkpt>
      <trkpt lat="43.97177" lon="5.33506">
        <ele>571.09344482422</ele>
        <time>2020-01-16T19:27:16.759Z</time>
      </trkpt>
      <trkpt lat="43.971" lon="5.33442">
        <ele>555.83239746094</ele>
        <time>2020-01-16T19:27:18.968Z</time>
      </trkpt>
      <trkpt lat="43.97099" lon="5.33441">
        <ele>555.77514648438</ele>
        <time>2020-01-16T19:27:21.177Z</time>
      </trkpt>
      <trkpt lat="43.96995" lon="5.3333">
        <ele>546.72058105469</ele>
        <time>2020-01-16T19:27:23.413Z</time>
      </trkpt>
      <trkpt lat="43.96994" lon="5.33329">
        <ele>546.60687255859</ele>
        <time>2020-01-16T19:27:25.649Z</time>
      </trkpt>
      <trkpt lat="43.96972" lon="5.33353">
        <ele>540.17651367188</ele>
        <time>2020-01-16T19:27:27.890Z</time>
      </trkpt>
      <trkpt lat="43.96971" lon="5.33354">
        <ele>540.00140380859</ele>
        <time>2020-01-16T19:27:30.132Z</time>
      </trkpt>
      <trkpt lat="43.96942" lon="5.33343">
        <ele>534.45690917969</ele>
        <time>2020-01-16T19:27:32.380Z</time>
      </trkpt>
      <trkpt lat="43.96941" lon="5.33342">
        <ele>534.18194580078</ele>
        <time>2020-01-16T19:27:34.628Z</time>
      </trkpt>
      <trkpt lat="43.9692" lon="5.3341">
        <ele>522.44122314453</ele>
        <time>2020-01-16T19:27:36.886Z</time>
      </trkpt>
      <trkpt lat="43.9692" lon="5.33411">
        <ele>522.17138671875</ele>
        <time>2020-01-16T19:27:39.145Z</time>
      </trkpt>
      <trkpt lat="43.96896" lon="5.33402">
        <ele>517.84991455078</ele>
        <time>2020-01-16T19:27:41.408Z</time>
      </trkpt>
      <trkpt lat="43.96895" lon="5.33401">
        <ele>517.68341064453</ele>
        <time>2020-01-16T19:27:43.672Z</time>
      </trkpt>
      <trkpt lat="43.9687" lon="5.33443">
        <ele>510.48287963867</ele>
        <time>2020-01-16T19:27:45.944Z</time>
      </trkpt>
      <trkpt lat="43.9687" lon="5.33444">
        <ele>510.36871337891</ele>
        <time>2020-01-16T19:27:48.216Z</time>
      </trkpt>
      <trkpt lat="43.9685" lon="5.33464">
        <ele>506.11740112305</ele>
        <time>2020-01-16T19:27:50.493Z</time>
      </trkpt>
      <trkpt lat="43.96849" lon="5.33465">
        <ele>505.8564453125</ele>
        <time>2020-01-16T19:27:52.770Z</time>
      </trkpt>
      <trkpt lat="43.96859" lon="5.33506">
        <ele>501.9892578125</ele>
        <time>2020-01-16T19:27:55.053Z</time>
      </trkpt>
      <trkpt lat="43.96859" lon="5.33507">
        <ele>501.85534667969</ele>
        <time>2020-01-16T19:27:57.336Z</time>
      </trkpt>
      <trkpt lat="43.96857" lon="5.33551">
        <ele>495.28897094727</ele>
        <time>2020-01-16T19:27:59.626Z</time>
      </trkpt>
      <trkpt lat="43.96857" lon="5.33553">
        <ele>495.12164306641</ele>
        <time>2020-01-16T19:28:01.916Z</time>
      </trkpt>
      <trkpt lat="43.96824" lon="5.33567">
        <ele>488.54699707031</ele>
        <time>2020-01-16T19:28:04.213Z</time>
      </trkpt>
      <trkpt lat="43.96823" lon="5.33568">
        <ele>488.35873413086</ele>
        <time>2020-01-16T19:28:06.510Z</time>
      </trkpt>
      <trkpt lat="43.96785" lon="5.33574">
        <ele>482.19464111328</ele>
        <time>2020-01-16T19:28:08.815Z</time>
      </trkpt>
      <trkpt lat="43.96784" lon="5.33574">
        <ele>482.04595947266</ele>
        <time>2020-01-16T19:28:11.120Z</time>
      </trkpt>
      <trkpt lat="43.96773" lon="5.33585">
        <ele>479.16802978516</ele>
        <time>2020-01-16T19:28:13.427Z</time>
      </trkpt>
      <trkpt lat="43.96772" lon="5.33586">
        <ele>478.89859008789</ele>
        <time>2020-01-16T19:28:15.735Z</time>
      </trkpt>
      <trkpt lat="43.96737" lon="5.3359">
        <ele>470.35052490234</ele>
        <time>2020-01-16T19:28:18.050Z</time>
      </trkpt>
      <trkpt lat="43.96736" lon="5.3359">
        <ele>470.11029052734</ele>
        <time>2020-01-16T19:28:20.365Z</time>
      </trkpt>
      <trkpt lat="43.96732" lon="5.33609">
        <ele>466.2453918457</ele>
        <time>2020-01-16T19:28:22.683Z</time>
      </trkpt>
      <trkpt lat="43.96732" lon="5.3361">
        <ele>465.98886108398</ele>
        <time>2020-01-16T19:28:25.001Z</time>
      </trkpt>
      <trkpt lat="43.96701" lon="5.33597">
        <ele>459.78967285156</ele>
        <time>2020-01-16T19:28:27.326Z</time>
      </trkpt>
      <trkpt lat="43.967" lon="5.33597">
        <ele>459.60363769531</ele>
        <time>2020-01-16T19:28:29.651Z</time>
      </trkpt>
      <trkpt lat="43.96601" lon="5.33493">
        <ele>440.78283691406</ele>
        <time>2020-01-16T19:28:32.001Z</time>
      </trkpt>
      <trkpt lat="43.966" lon="5.33492">
        <ele>440.72482299805</ele>
        <time>2020-01-16T19:28:34.351Z</time>
      </trkpt>
      <trkpt lat="43.96479" lon="5.33452">
        <ele>422.54415893555</ele>
        <time>2020-01-16T19:28:36.726Z</time>
      </trkpt>
      <trkpt lat="43.96478" lon="5.33452">
        <ele>422.44366455078</ele>
        <time>2020-01-16T19:28:39.101Z</time>
      </trkpt>
      <trkpt lat="43.96433" lon="5.33437">
        <ele>418.37435913086</ele>
        <time>2020-01-16T19:28:41.485Z</time>
      </trkpt>
      <trkpt lat="43.96432" lon="5.33437">
        <ele>418.31466674805</ele>
        <time>2020-01-16T19:28:43.869Z</time>
      </trkpt>
      <trkpt lat="43.96368" lon="5.33162">
        <ele>424.57299804688</ele>
        <time>2020-01-16T19:28:46.295Z</time>
      </trkpt>
      <trkpt lat="43.96368" lon="5.33161">
        <ele>424.59954833984</ele>
        <time>2020-01-16T19:28:48.721Z</time>
      </trkpt>
      <trkpt lat="43.96353" lon="5.33007">
        <ele>435.02883911133</ele>
        <time>2020-01-16T19:28:51.170Z</time>
      </trkpt>
      <trkpt lat="43.96353" lon="5.33006">
        <ele>435.10354614258</ele>
        <time>2020-01-16T19:28:53.619Z</time>
      </trkpt>
      <trkpt lat="43.96301" lon="5.32909">
        <ele>441.36303710938</ele>
        <time>2020-01-16T19:28:56.085Z</time>
      </trkpt>
      <trkpt lat="43.96301" lon="5.32908">
        <ele>441.40570068359</ele>
        <time>2020-01-16T19:28:58.551Z</time>
      </trkpt>
      <trkpt lat="43.96275" lon="5.32819">
        <ele>446.02398681641</ele>
        <time>2020-01-16T19:29:01.031Z</time>
      </trkpt>
      <trkpt lat="43.96275" lon="5.32818">
        <ele>446.05844116211</ele>
        <time>2020-01-16T19:29:03.511Z</time>
      </trkpt>
      <trkpt lat="43.96273" lon="5.32732">
        <ele>450.24990844727</ele>
        <time>2020-01-16T19:29:06.004Z</time>
      </trkpt>
      <trkpt lat="43.96273" lon="5.32731">
        <ele>450.30856323242</ele>
        <time>2020-01-16T19:29:08.497Z</time>
      </trkpt>
      <trkpt lat="43.96205" lon="5.32615">
        <ele>454.982421875</ele>
        <time>2020-01-16T19:29:11.011Z</time>
      </trkpt>
      <trkpt lat="43.96205" lon="5.32614">
        <ele>454.96432495117</ele>
        <time>2020-01-16T19:29:13.526Z</time>
      </trkpt>
      <trkpt lat="43.96206" lon="5.32664">
        <ele>454.76165771484</ele>
        <time>2020-01-16T19:29:16.048Z</time>
      </trkpt>
      <trkpt lat="43.96206" lon="5.32665">
        <ele>454.79061889648</ele>
        <time>2020-01-16T19:29:18.570Z</time>
      </trkpt>
      <trkpt lat="43.96214" lon="5.32713">
        <ele>455.34884643555</ele>
        <time>2020-01-16T19:29:21.099Z</time>
      </trkpt>
      <trkpt lat="43.96214" lon="5.32715">
        <ele>455.30599975586</ele>
        <time>2020-01-16T19:29:23.628Z</time>
      </trkpt>
      <trkpt lat="43.96166" lon="5.32754">
        <ele>463.94686889648</ele>
        <time>2020-01-16T19:29:26.169Z</time>
      </trkpt>
      <trkpt lat="43.96165" lon="5.32754">
        <ele>464.16418457031</ele>
        <time>2020-01-16T19:29:28.710Z</time>
      </trkpt>
      <trkpt lat="43.96163" lon="5.32777">
        <ele>465.45434570312</ele>
        <time>2020-01-16T19:29:31.254Z</time>
      </trkpt>
      <trkpt lat="43.96163" lon="5.32778">
        <ele>465.55654907227</ele>
        <time>2020-01-16T19:29:33.798Z</time>
      </trkpt>
      <trkpt lat="43.96148" lon="5.32792">
        <ele>470.033203125</ele>
        <time>2020-01-16T19:29:36.346Z</time>
      </trkpt>
      <trkpt lat="43.96129" lon="5.32809">
        <ele>474.84634399414</ele>
        <time>2020-01-16T19:29:38.898Z</time>
      </trkpt>
      <trkpt lat="43.96128" lon="5.3281">
        <ele>475.0505065918</ele>
        <time>2020-01-16T19:29:41.451Z</time>
      </trkpt>
      <trkpt lat="43.96023" lon="5.32872">
        <ele>508.2590637207</ele>
        <time>2020-01-16T19:29:44.027Z</time>
      </trkpt>
      <trkpt lat="43.96022" lon="5.32872">
        <ele>508.78842163086</ele>
        <time>2020-01-16T19:29:46.603Z</time>
      </trkpt>
      <trkpt lat="43.96047" lon="5.33202">
        <ele>518.48559570312</ele>
        <time>2020-01-16T19:29:49.227Z</time>
      </trkpt>
      <trkpt lat="43.96047" lon="5.33203">
        <ele>518.43029785156</ele>
        <time>2020-01-16T19:29:51.851Z</time>
      </trkpt>
      <trkpt lat="43.96038" lon="5.33264">
        <ele>511.59320068359</ele>
        <time>2020-01-16T19:29:54.484Z</time>
      </trkpt>
      <trkpt lat="43.96038" lon="5.33265">
        <ele>511.36932373047</ele>
        <time>2020-01-16T19:29:57.117Z</time>
      </trkpt>
      <trkpt lat="43.96015" lon="5.333">
        <ele>508.85522460938</ele>
        <time>2020-01-16T19:29:59.757Z</time>
      </trkpt>
      <trkpt lat="43.96014" lon="5.33301">
        <ele>508.63265991211</ele>
        <time>2020-01-16T19:30:02.397Z</time>
      </trkpt>
      <trkpt lat="43.95949" lon="5.3333">
        <ele>510.43139648438</ele>
        <time>2020-01-16T19:30:05.051Z</time>
      </trkpt>
      <trkpt lat="43.95948" lon="5.3333">
        <ele>510.39373779297</ele>
        <time>2020-01-16T19:30:07.705Z</time>
      </trkpt>
      <trkpt lat="43.95874" lon="5.33348">
        <ele>515.06085205078</ele>
        <time>2020-01-16T19:30:10.374Z</time>
      </trkpt>
      <trkpt lat="43.95873" lon="5.33349">
        <ele>515.16046142578</ele>
        <time>2020-01-16T19:30:13.043Z</time>
      </trkpt>
      <trkpt lat="43.95813" lon="5.3335">
        <ele>523.09057617188</ele>
        <time>2020-01-16T19:30:15.724Z</time>
      </trkpt>
      <trkpt lat="43.95812" lon="5.3335">
        <ele>523.3271484375</ele>
        <time>2020-01-16T19:30:18.405Z</time>
      </trkpt>
      <trkpt lat="43.95759" lon="5.33361">
        <ele>526.94055175781</ele>
        <time>2020-01-16T19:30:21.097Z</time>
      </trkpt>
      <trkpt lat="43.95758" lon="5.33362">
        <ele>526.76513671875</ele>
        <time>2020-01-16T19:30:23.789Z</time>
      </trkpt>
      <trkpt lat="43.95743" lon="5.33365">
        <ele>527.55926513672</ele>
        <time>2020-01-16T19:30:26.484Z</time>
      </trkpt>
      <trkpt lat="43.95742" lon="5.33365">
        <ele>527.65344238281</ele>
        <time>2020-01-16T19:30:29.179Z</time>
      </trkpt>
      <trkpt lat="43.9563" lon="5.33461">
        <ele>512.3564453125</ele>
        <time>2020-01-16T19:30:31.901Z</time>
      </trkpt>
      <trkpt lat="43.95629" lon="5.33461">
        <ele>512.29699707031</ele>
        <time>2020-01-16T19:30:34.623Z</time>
      </trkpt>
      <trkpt lat="43.95456" lon="5.33737">
        <ele>412.25646972656</ele>
        <time>2020-01-16T19:30:37.398Z</time>
      </trkpt>
      <trkpt lat="43.95456" lon="5.33738">
        <ele>412.00033569336</ele>
        <time>2020-01-16T19:30:40.173Z</time>
      </trkpt>
      <trkpt lat="43.95391" lon="5.33715">
        <ele>406.92785644531</ele>
        <time>2020-01-16T19:30:42.961Z</time>
      </trkpt>
      <trkpt lat="43.9539" lon="5.33715">
        <ele>406.75750732422</ele>
        <time>2020-01-16T19:30:45.750Z</time>
      </trkpt>
      <trkpt lat="43.95343" lon="5.3368">
        <ele>406.22131347656</ele>
        <time>2020-01-16T19:30:48.549Z</time>
      </trkpt>
      <trkpt lat="43.95342" lon="5.33679">
        <ele>406.22644042969</ele>
        <time>2020-01-16T19:30:51.348Z</time>
      </trkpt>
      <trkpt lat="43.95321" lon="5.3366">
        <ele>407.80227661133</ele>
        <time>2020-01-16T19:30:54.152Z</time>
      </trkpt>
      <trkpt lat="43.9532" lon="5.33659">
        <ele>407.87017822266</ele>
        <time>2020-01-16T19:30:56.957Z</time>
      </trkpt>
      <trkpt lat="43.9528" lon="5.3364">
        <ele>403.99990844727</ele>
        <time>2020-01-16T19:30:59.770Z</time>
      </trkpt>
      <trkpt lat="43.95279" lon="5.33639">
        <ele>403.87622070312</ele>
        <time>2020-01-16T19:31:02.583Z</time>
      </trkpt>
      <trkpt lat="43.95147" lon="5.33586">
        <ele>396.59579467773</ele>
        <time>2020-01-16T19:31:05.424Z</time>
      </trkpt>
      <trkpt lat="43.95146" lon="5.33586">
        <ele>396.50842285156</ele>
        <time>2020-01-16T19:31:08.265Z</time>
      </trkpt>
      <trkpt lat="43.95098" lon="5.33535">
        <ele>407.07699584961</ele>
        <time>2020-01-16T19:31:11.118Z</time>
      </trkpt>
      <trkpt lat="43.95097" lon="5.33534">
        <ele>407.39038085938</ele>
        <time>2020-01-16T19:31:13.971Z</time>
      </trkpt>
      <trkpt lat="43.95076" lon="5.33521">
        <ele>412.86215209961</ele>
        <time>2020-01-16T19:31:16.829Z</time>
      </trkpt>
      <trkpt lat="43.95075" lon="5.3352">
        <ele>413.13088989258</ele>
        <time>2020-01-16T19:31:19.687Z</time>
      </trkpt>
      <trkpt lat="43.95036" lon="5.33543">
        <ele>413.3291015625</ele>
        <time>2020-01-16T19:31:22.554Z</time>
      </trkpt>
      <trkpt lat="43.95035" lon="5.33544">
        <ele>413.33432006836</ele>
        <time>2020-01-16T19:31:25.421Z</time>
      </trkpt>
      <trkpt lat="43.94976" lon="5.33597">
        <ele>401.32095336914</ele>
        <time>2020-01-16T19:31:28.302Z</time>
      </trkpt>
      <trkpt lat="43.94975" lon="5.33598">
        <ele>401.42828369141</ele>
        <time>2020-01-16T19:31:31.183Z</time>
      </trkpt>
      <trkpt lat="43.94784" lon="5.33387">
        <ele>404.25891113281</ele>
        <time>2020-01-16T19:31:34.113Z</time>
      </trkpt>
      <trkpt lat="43.94783" lon="5.33386">
        <ele>404.15255737305</ele>
        <time>2020-01-16T19:31:37.043Z</time>
      </trkpt>
      <trkpt lat="43.94716" lon="5.33378">
        <ele>394.70602416992</ele>
        <time>2020-01-16T19:31:39.987Z</time>
      </trkpt>
      <trkpt lat="43.94715" lon="5.33378">
        <ele>394.541015625</ele>
        <time>2020-01-16T19:31:42.931Z</time>
      </trkpt>
      <trkpt lat="43.9466" lon="5.33401">
        <ele>387.95886230469</ele>
        <time>2020-01-16T19:31:45.886Z</time>
      </trkpt>
      <trkpt lat="43.94659" lon="5.33401">
        <ele>387.84515380859</ele>
        <time>2020-01-16T19:31:48.842Z</time>
      </trkpt>
      <trkpt lat="43.94551" lon="5.33404">
        <ele>375.20617675781</ele>
        <time>2020-01-16T19:31:51.819Z</time>
      </trkpt>
      <trkpt lat="43.9455" lon="5.33404">
        <ele>375.05844116211</ele>
        <time>2020-01-16T19:31:54.797Z</time>
      </trkpt>
      <trkpt lat="43.94489" lon="5.33394">
        <ele>369.47076416016</ele>
        <time>2020-01-16T19:31:57.787Z</time>
      </trkpt>
      <trkpt lat="43.94488" lon="5.33394">
        <ele>369.38632202148</ele>
        <time>2020-01-16T19:32:00.777Z</time>
      </trkpt>
      <trkpt lat="43.94456" lon="5.33399">
        <ele>366.99761962891</ele>
        <time>2020-01-16T19:32:03.773Z</time>
      </trkpt>
      <trkpt lat="43.94455" lon="5.33399">
        <ele>366.88241577148</ele>
        <time>2020-01-16T19:32:06.770Z</time>
      </trkpt>
      <trkpt lat="43.94442" lon="5.33363">
        <ele>366.08358764648</ele>
        <time>2020-01-16T19:32:09.773Z</time>
      </trkpt>
      <trkpt lat="43.94441" lon="5.33362">
        <ele>366.04974365234</ele>
        <time>2020-01-16T19:32:12.776Z</time>
      </trkpt>
      <trkpt lat="43.94464" lon="5.33335">
        <ele>367.65707397461</ele>
        <time>2020-01-16T19:32:15.785Z</time>
      </trkpt>
      <trkpt lat="43.94465" lon="5.33334">
        <ele>367.71801757812</ele>
        <time>2020-01-16T19:32:18.794Z</time>
      </trkpt>
      <trkpt lat="43.94524" lon="5.33323">
        <ele>373.33880615234</ele>
        <time>2020-01-16T19:32:21.815Z</time>
      </trkpt>
      <trkpt lat="43.94525" lon="5.33323">
        <ele>373.47613525391</ele>
        <time>2020-01-16T19:32:24.836Z</time>
      </trkpt>
      <trkpt lat="43.94629" lon="5.33304">
        <ele>385.39099121094</ele>
        <time>2020-01-16T19:32:27.878Z</time>
      </trkpt>
      <trkpt lat="43.9463" lon="5.33304">
        <ele>385.5442199707</ele>
        <time>2020-01-16T19:32:30.920Z</time>
      </trkpt>
      <trkpt lat="43.94731" lon="5.33294">
        <ele>397.91207885742</ele>
        <time>2020-01-16T19:32:33.983Z</time>
      </trkpt>
      <trkpt lat="43.94733" lon="5.33294">
        <ele>398.06298828125</ele>
        <time>2020-01-16T19:32:37.046Z</time>
      </trkpt>
      <trkpt lat="43.94924" lon="5.33305">
        <ele>424.5270690918</ele>
        <time>2020-01-16T19:32:40.147Z</time>
      </trkpt>
      <trkpt lat="43.94925" lon="5.33305">
        <ele>424.7204284668</ele>
        <time>2020-01-16T19:32:43.248Z</time>
      </trkpt>
      <trkpt lat="43.95083" lon="5.33294">
        <ele>447.06716918945</ele>
        <time>2020-01-16T19:32:46.381Z</time>
      </trkpt>
      <trkpt lat="43.95084" lon="5.33294">
        <ele>447.27011108398</ele>
        <time>2020-01-16T19:32:49.514Z</time>
      </trkpt>
      <trkpt lat="43.95274" lon="5.33256">
        <ele>471.88961791992</ele>
        <time>2020-01-16T19:32:52.685Z</time>
      </trkpt>
      <trkpt lat="43.95275" lon="5.33255">
        <ele>472.11111450195</ele>
        <time>2020-01-16T19:32:55.857Z</time>
      </trkpt>
      <trkpt lat="43.95388" lon="5.33214">
        <ele>490.65014648438</ele>
        <time>2020-01-16T19:32:59.052Z</time>
      </trkpt>
      <trkpt lat="43.95389" lon="5.33213">
        <ele>490.79638671875</ele>
        <time>2020-01-16T19:33:02.247Z</time>
      </trkpt>
      <trkpt lat="43.95388" lon="5.33181">
        <ele>490.70785522461</ele>
        <time>2020-01-16T19:33:05.447Z</time>
      </trkpt>
      <trkpt lat="43.95388" lon="5.33179">
        <ele>490.70370483398</ele>
        <time>2020-01-16T19:33:08.647Z</time>
      </trkpt>
      <trkpt lat="43.95356" lon="5.3317">
        <ele>486.72137451172</ele>
        <time>2020-01-16T19:33:11.854Z</time>
      </trkpt>
      <trkpt lat="43.95354" lon="5.3317">
        <ele>486.55154418945</ele>
        <time>2020-01-16T19:33:15.061Z</time>
      </trkpt>
      <trkpt lat="43.95274" lon="5.33118">
        <ele>475.03323364258</ele>
        <time>2020-01-16T19:33:18.286Z</time>
      </trkpt>
      <trkpt lat="43.95273" lon="5.33117">
        <ele>474.86474609375</ele>
        <time>2020-01-16T19:33:21.511Z</time>
      </trkpt>
      <trkpt lat="43.952" lon="5.33091">
        <ele>463.78164672852</ele>
        <time>2020-01-16T19:33:24.751Z</time>
      </trkpt>
      <trkpt lat="43.95198" lon="5.3309">
        <ele>463.60314941406</ele>
        <time>2020-01-16T19:33:27.992Z</time>
      </trkpt>
      <trkpt lat="43.9518" lon="5.33038">
        <ele>460.6930847168</ele>
        <time>2020-01-16T19:33:31.241Z</time>
      </trkpt>
      <trkpt lat="43.95179" lon="5.33036">
        <ele>460.68188476562</ele>
        <time>2020-01-16T19:33:34.490Z</time>
      </trkpt>
      <trkpt lat="43.9521" lon="5.32926">
        <ele>467.15710449219</ele>
        <time>2020-01-16T19:33:37.756Z</time>
      </trkpt>
      <trkpt lat="43.9521" lon="5.32925">
        <ele>467.23181152344</ele>
        <time>2020-01-16T19:33:41.023Z</time>
      </trkpt>
      <trkpt lat="43.95237" lon="5.32883">
        <ele>472.52200317383</ele>
        <time>2020-01-16T19:33:44.298Z</time>
      </trkpt>
      <trkpt lat="43.95238" lon="5.32882">
        <ele>472.68905639648</ele>
        <time>2020-01-16T19:33:47.573Z</time>
      </trkpt>
      <trkpt lat="43.95282" lon="5.32848">
        <ele>480.38870239258</ele>
        <time>2020-01-16T19:33:50.858Z</time>
      </trkpt>
      <trkpt lat="43.95283" lon="5.32848">
        <ele>480.59396362305</ele>
        <time>2020-01-16T19:33:54.143Z</time>
      </trkpt>
      <trkpt lat="43.95407" lon="5.3272">
        <ele>499.93487548828</ele>
        <time>2020-01-16T19:33:57.459Z</time>
      </trkpt>
      <trkpt lat="43.95408" lon="5.32719">
        <ele>500.09167480469</ele>
        <time>2020-01-16T19:34:00.775Z</time>
      </trkpt>
      <trkpt lat="43.9548" lon="5.32651">
        <ele>513.2724609375</ele>
        <time>2020-01-16T19:34:04.109Z</time>
      </trkpt>
      <trkpt lat="43.95481" lon="5.3265">
        <ele>513.42980957031</ele>
        <time>2020-01-16T19:34:07.443Z</time>
      </trkpt>
      <trkpt lat="43.95518" lon="5.32583">
        <ele>518.35150146484</ele>
        <time>2020-01-16T19:34:10.789Z</time>
      </trkpt>
      <trkpt lat="43.95519" lon="5.32582">
        <ele>518.41400146484</ele>
        <time>2020-01-16T19:34:14.136Z</time>
      </trkpt>
      <trkpt lat="43.95521" lon="5.32527">
        <ele>517.96374511719</ele>
        <time>2020-01-16T19:34:17.490Z</time>
      </trkpt>
      <trkpt lat="43.95521" lon="5.32526">
        <ele>518.01153564453</ele>
        <time>2020-01-16T19:34:20.845Z</time>
      </trkpt>
      <trkpt lat="43.95486" lon="5.32479">
        <ele>513.18884277344</ele>
        <time>2020-01-16T19:34:24.209Z</time>
      </trkpt>
      <trkpt lat="43.95485" lon="5.32477">
        <ele>513.07257080078</ele>
        <time>2020-01-16T19:34:27.574Z</time>
      </trkpt>
      <trkpt lat="43.95421" lon="5.32374">
        <ele>506.68676757812</ele>
        <time>2020-01-16T19:34:30.958Z</time>
      </trkpt>
      <trkpt lat="43.9542" lon="5.32372">
        <ele>506.68103027344</ele>
        <time>2020-01-16T19:34:34.343Z</time>
      </trkpt>
      <trkpt lat="43.95393" lon="5.3244">
        <ele>499.37335205078</ele>
        <time>2020-01-16T19:34:37.739Z</time>
      </trkpt>
      <trkpt lat="43.95392" lon="5.32441">
        <ele>499.19845581055</ele>
        <time>2020-01-16T19:34:41.135Z</time>
      </trkpt>
      <trkpt lat="43.95327" lon="5.32495">
        <ele>487.5842590332</ele>
        <time>2020-01-16T19:34:44.546Z</time>
      </trkpt>
      <trkpt lat="43.95326" lon="5.32496">
        <ele>487.43368530273</ele>
        <time>2020-01-16T19:34:47.957Z</time>
      </trkpt>
      <trkpt lat="43.95259" lon="5.32524">
        <ele>478.82629394531</ele>
        <time>2020-01-16T19:34:51.382Z</time>
      </trkpt>
      <trkpt lat="43.95258" lon="5.32525">
        <ele>478.70288085938</ele>
        <time>2020-01-16T19:34:54.808Z</time>
      </trkpt>
      <trkpt lat="43.95176" lon="5.32562">
        <ele>463.83126831055</ele>
        <time>2020-01-16T19:34:58.251Z</time>
      </trkpt>
      <trkpt lat="43.95174" lon="5.32562">
        <ele>463.67068481445</ele>
        <time>2020-01-16T19:35:01.694Z</time>
      </trkpt>
      <trkpt lat="43.95076" lon="5.32645">
        <ele>450.52789306641</ele>
        <time>2020-01-16T19:35:05.160Z</time>
      </trkpt>
      <trkpt lat="43.95075" lon="5.32646">
        <ele>450.43005371094</ele>
        <time>2020-01-16T19:35:08.627Z</time>
      </trkpt>
      <trkpt lat="43.94995" lon="5.32643">
        <ele>439.04995727539</ele>
        <time>2020-01-16T19:35:12.110Z</time>
      </trkpt>
      <trkpt lat="43.94994" lon="5.32643">
        <ele>438.84140014648</ele>
        <time>2020-01-16T19:35:15.593Z</time>
      </trkpt>
      <trkpt lat="43.94895" lon="5.32643">
        <ele>425.14306640625</ele>
        <time>2020-01-16T19:35:19.095Z</time>
      </trkpt>
      <trkpt lat="43.94894" lon="5.32643">
        <ele>424.9817199707</ele>
        <time>2020-01-16T19:35:22.598Z</time>
      </trkpt>
      <trkpt lat="43.94809" lon="5.32661">
        <ele>414.3134765625</ele>
        <time>2020-01-16T19:35:26.118Z</time>
      </trkpt>
      <trkpt lat="43.94808" lon="5.32661">
        <ele>414.14669799805</ele>
        <time>2020-01-16T19:35:29.638Z</time>
      </trkpt>
      <trkpt lat="43.94673" lon="5.32695">
        <ele>396.04440307617</ele>
        <time>2020-01-16T19:35:33.186Z</time>
      </trkpt>
      <trkpt lat="43.94671" lon="5.32695">
        <ele>395.86553955078</ele>
        <time>2020-01-16T19:35:36.734Z</time>
      </trkpt>
      <trkpt lat="43.94743" lon="5.32555">
        <ele>408.36212158203</ele>
        <time>2020-01-16T19:35:40.307Z</time>
      </trkpt>
      <trkpt lat="43.94744" lon="5.32554">
        <ele>408.47540283203</ele>
        <time>2020-01-16T19:35:43.880Z</time>
      </trkpt>
      <trkpt lat="43.94834" lon="5.32468">
        <ele>423.62725830078</ele>
        <time>2020-01-16T19:35:47.475Z</time>
      </trkpt>
      <trkpt lat="43.94835" lon="5.32467">
        <ele>423.84722900391</ele>
        <time>2020-01-16T19:35:51.070Z</time>
      </trkpt>
      <trkpt lat="43.94988" lon="5.32357">
        <ele>446.66348266602</ele>
        <time>2020-01-16T19:35:54.700Z</time>
      </trkpt>
      <trkpt lat="43.94989" lon="5.32356">
        <ele>446.79153442383</ele>
        <time>2020-01-16T19:35:58.330Z</time>
      </trkpt>
      <trkpt lat="43.95035" lon="5.32354">
        <ele>453.52606201172</ele>
        <time>2020-01-16T19:36:01.969Z</time>
      </trkpt>
      <trkpt lat="43.95036" lon="5.32354">
        <ele>453.71298217773</ele>
        <time>2020-01-16T19:36:05.608Z</time>
      </trkpt>
      <trkpt lat="43.95074" lon="5.32344">
        <ele>458.88677978516</ele>
        <time>2020-01-16T19:36:09.255Z</time>
      </trkpt>
      <trkpt lat="43.95075" lon="5.32343">
        <ele>459.1188659668</ele>
        <time>2020-01-16T19:36:12.902Z</time>
      </trkpt>
      <trkpt lat="43.95102" lon="5.32285">
        <ele>463.09814453125</ele>
        <time>2020-01-16T19:36:16.559Z</time>
      </trkpt>
      <trkpt lat="43.95103" lon="5.32284">
        <ele>463.13269042969</ele>
        <time>2020-01-16T19:36:20.216Z</time>
      </trkpt>
      <trkpt lat="43.95149" lon="5.32216">
        <ele>469.33355712891</ele>
        <time>2020-01-16T19:36:23.887Z</time>
      </trkpt>
      <trkpt lat="43.95149" lon="5.32215">
        <ele>469.5466003418</ele>
        <time>2020-01-16T19:36:27.558Z</time>
      </trkpt>
      <trkpt lat="43.95242" lon="5.3213">
        <ele>484.3955078125</ele>
        <time>2020-01-16T19:36:31.251Z</time>
      </trkpt>
      <trkpt lat="43.95243" lon="5.32129">
        <ele>484.63787841797</ele>
        <time>2020-01-16T19:36:34.944Z</time>
      </trkpt>
      <trkpt lat="43.95276" lon="5.32113">
        <ele>491.50466918945</ele>
        <time>2020-01-16T19:36:38.645Z</time>
      </trkpt>
      <trkpt lat="43.95277" lon="5.32112">
        <ele>491.72134399414</ele>
        <time>2020-01-16T19:36:42.346Z</time>
      </trkpt>
      <trkpt lat="43.95267" lon="5.3198">
        <ele>493.34722900391</ele>
        <time>2020-01-16T19:36:46.066Z</time>
      </trkpt>
      <trkpt lat="43.95267" lon="5.31978">
        <ele>493.38311767578</ele>
        <time>2020-01-16T19:36:49.786Z</time>
      </trkpt>
      <trkpt lat="43.95398" lon="5.3173">
        <ele>524.27697753906</ele>
        <time>2020-01-16T19:36:53.551Z</time>
      </trkpt>
      <trkpt lat="43.95399" lon="5.31729">
        <ele>524.40637207031</ele>
        <time>2020-01-16T19:36:57.316Z</time>
      </trkpt>
      <trkpt lat="43.95415" lon="5.31601">
        <ele>533.23181152344</ele>
        <time>2020-01-16T19:37:01.100Z</time>
      </trkpt>
      <trkpt lat="43.95415" lon="5.316">
        <ele>533.30548095703</ele>
        <time>2020-01-16T19:37:04.884Z</time>
      </trkpt>
      <trkpt lat="43.95428" lon="5.31575">
        <ele>535.59918212891</ele>
        <time>2020-01-16T19:37:08.672Z</time>
      </trkpt>
      <trkpt lat="43.95429" lon="5.31573">
        <ele>535.73040771484</ele>
        <time>2020-01-16T19:37:12.461Z</time>
      </trkpt>
      <trkpt lat="43.9543" lon="5.31548">
        <ele>536.78863525391</ele>
        <time>2020-01-16T19:37:16.253Z</time>
      </trkpt>
      <trkpt lat="43.9543" lon="5.31546">
        <ele>536.84558105469</ele>
        <time>2020-01-16T19:37:20.045Z</time>
      </trkpt>
      <trkpt lat="43.95416" lon="5.31535">
        <ele>535.47387695312</ele>
        <time>2020-01-16T19:37:23.841Z</time>
      </trkpt>
      <trkpt lat="43.95415" lon="5.31534">
        <ele>535.36083984375</ele>
        <time>2020-01-16T19:37:27.637Z</time>
      </trkpt>
      <trkpt lat="43.95376" lon="5.31469">
        <ele>530.49127197266</ele>
        <time>2020-01-16T19:37:31.445Z</time>
      </trkpt>
      <trkpt lat="43.95375" lon="5.31467">
        <ele>530.36260986328</ele>
        <time>2020-01-16T19:37:35.253Z</time>
      </trkpt>
      <trkpt lat="43.95299" lon="5.31441">
        <ele>523.67962646484</ele>
        <time>2020-01-16T19:37:39.077Z</time>
      </trkpt>
      <trkpt lat="43.95298" lon="5.31441">
        <ele>523.53356933594</ele>
        <time>2020-01-16T19:37:42.901Z</time>
      </trkpt>
      <trkpt lat="43.95159" lon="5.31272">
        <ele>504.74325561523</ele>
        <time>2020-01-16T19:37:46.762Z</time>
      </trkpt>
      <trkpt lat="43.95158" lon="5.31271">
        <ele>504.62228393555</ele>
        <time>2020-01-16T19:37:50.624Z</time>
      </trkpt>
      <trkpt lat="43.94937" lon="5.30984">
        <ele>471.33602905273</ele>
        <time>2020-01-16T19:37:54.546Z</time>
      </trkpt>
      <trkpt lat="43.94936" lon="5.30983">
        <ele>471.15081787109</ele>
        <time>2020-01-16T19:37:58.468Z</time>
      </trkpt>
      <trkpt lat="43.94876" lon="5.30753">
        <ele>466.0754699707</ele>
        <time>2020-01-16T19:38:02.426Z</time>
      </trkpt>
      <trkpt lat="43.94876" lon="5.30751">
        <ele>466.14190673828</ele>
        <time>2020-01-16T19:38:06.384Z</time>
      </trkpt>
      <trkpt lat="43.94808" lon="5.30605">
        <ele>459.55673217773</ele>
        <time>2020-01-16T19:38:10.367Z</time>
      </trkpt>
      <trkpt lat="43.94808" lon="5.30603">
        <ele>459.57571411133</ele>
        <time>2020-01-16T19:38:14.350Z</time>
      </trkpt>
      <trkpt lat="43.948" lon="5.30489">
        <ele>451.97817993164</ele>
        <time>2020-01-16T19:38:18.350Z</time>
      </trkpt>
      <trkpt lat="43.948" lon="5.30487">
        <ele>451.36630249023</ele>
        <time>2020-01-16T19:38:22.350Z</time>
      </trkpt>
      <trkpt lat="43.94632" lon="5.30306">
        <ele>439.67651367188</ele>
        <time>2020-01-16T19:38:26.393Z</time>
      </trkpt>
      <trkpt lat="43.94631" lon="5.30305">
        <ele>439.55044555664</ele>
        <time>2020-01-16T19:38:30.436Z</time>
      </trkpt>
      <trkpt lat="43.94489" lon="5.30109">
        <ele>423.3219909668</ele>
        <time>2020-01-16T19:38:34.519Z</time>
      </trkpt>
      <trkpt lat="43.94488" lon="5.30107">
        <ele>423.20825195312</ele>
        <time>2020-01-16T19:38:38.602Z</time>
      </trkpt>
      <trkpt lat="43.94294" lon="5.29888">
        <ele>398.91110229492</ele>
        <time>2020-01-16T19:38:42.736Z</time>
      </trkpt>
      <trkpt lat="43.94293" lon="5.29886">
        <ele>398.77758789062</ele>
        <time>2020-01-16T19:38:46.870Z</time>
      </trkpt>
      <trkpt lat="43.94126" lon="5.29645">
        <ele>378.96795654297</ele>
        <time>2020-01-16T19:38:51.052Z</time>
      </trkpt>
      <trkpt lat="43.94125" lon="5.29644">
        <ele>378.79452514648</ele>
        <time>2020-01-16T19:38:55.234Z</time>
      </trkpt>
      <trkpt lat="43.94109" lon="5.29578">
        <ele>375.16549682617</ele>
        <time>2020-01-16T19:38:59.426Z</time>
      </trkpt>
      <trkpt lat="43.94109" lon="5.29576">
        <ele>375.15054321289</ele>
        <time>2020-01-16T19:39:03.619Z</time>
      </trkpt>
      <trkpt lat="43.94083" lon="5.29523">
        <ele>371.9192199707</ele>
        <time>2020-01-16T19:39:07.821Z</time>
      </trkpt>
      <trkpt lat="43.94082" lon="5.29522">
        <ele>371.85623168945</ele>
        <time>2020-01-16T19:39:12.023Z</time>
      </trkpt>
      <trkpt lat="43.94077" lon="5.29498">
        <ele>368.35815429688</ele>
        <time>2020-01-16T19:39:16.229Z</time>
      </trkpt>
      <trkpt lat="43.94076" lon="5.29496">
        <ele>368.08856201172</ele>
        <time>2020-01-16T19:39:20.435Z</time>
      </trkpt>
      <trkpt lat="43.94066" lon="5.29477">
        <ele>365.81726074219</ele>
        <time>2020-01-16T19:39:24.645Z</time>
      </trkpt>
      <trkpt lat="43.94065" lon="5.29476">
        <ele>365.63772583008</ele>
        <time>2020-01-16T19:39:28.855Z</time>
      </trkpt>
      <trkpt lat="43.94053" lon="5.29476">
        <ele>366.62258911133</ele>
        <time>2020-01-16T19:39:33.067Z</time>
      </trkpt>
      <trkpt lat="43.94052" lon="5.29476">
        <ele>366.74072265625</ele>
        <time>2020-01-16T19:39:37.279Z</time>
      </trkpt>
      <trkpt lat="43.94047" lon="5.29463">
        <ele>365.08081054688</ele>
        <time>2020-01-16T19:39:41.493Z</time>
      </trkpt>
      <trkpt lat="43.94046" lon="5.29462">
        <ele>364.93106079102</ele>
        <time>2020-01-16T19:39:45.708Z</time>
      </trkpt>
      <trkpt lat="43.94034" lon="5.29465">
        <ele>366.38873291016</ele>
        <time>2020-01-16T19:39:49.925Z</time>
      </trkpt>
      <trkpt lat="43.94032" lon="5.29465">
        <ele>366.56063842773</ele>
        <time>2020-01-16T19:39:54.143Z</time>
      </trkpt>
      <trkpt lat="43.94025" lon="5.29478">
        <ele>367.06427001953</ele>
        <time>2020-01-16T19:39:58.363Z</time>
      </trkpt>
      <trkpt lat="43.94024" lon="5.29479">
        <ele>366.98574829102</ele>
        <time>2020-01-16T19:40:02.583Z</time>
      </trkpt>
      <trkpt lat="43.94012" lon="5.29471">
        <ele>365.60797119141</ele>
        <time>2020-01-16T19:40:06.806Z</time>
      </trkpt>
      <trkpt lat="43.94011" lon="5.2947">
        <ele>365.45635986328</ele>
        <time>2020-01-16T19:40:11.029Z</time>
      </trkpt>
      <trkpt lat="43.94005" lon="5.29467">
        <ele>364.68780517578</ele>
        <time>2020-01-16T19:40:15.254Z</time>
      </trkpt>
      <trkpt lat="43.94003" lon="5.29466">
        <ele>364.52944946289</ele>
        <time>2020-01-16T19:40:19.479Z</time>
      </trkpt>
      <trkpt lat="43.93958" lon="5.29495">
        <ele>358.86029052734</ele>
        <time>2020-01-16T19:40:23.714Z</time>
      </trkpt>
      <trkpt lat="43.93956" lon="5.29495">
        <ele>358.67712402344</ele>
        <time>2020-01-16T19:40:27.949Z</time>
      </trkpt>
      <trkpt lat="43.93932" lon="5.29508">
        <ele>355.18011474609</ele>
        <time>2020-01-16T19:40:32.189Z</time>
      </trkpt>
      <trkpt lat="43.9393" lon="5.29509">
        <ele>354.9775390625</ele>
        <time>2020-01-16T19:40:36.430Z</time>
      </trkpt>
      <trkpt lat="43.93892" lon="5.29477">
        <ele>349.86239624023</ele>
        <time>2020-01-16T19:40:40.680Z</time>
      </trkpt>
      <trkpt lat="43.93891" lon="5.29476">
        <ele>349.69741821289</ele>
        <time>2020-01-16T19:40:44.930Z</time>
      </trkpt>
      <trkpt lat="43.9388" lon="5.2941">
        <ele>348.28131103516</ele>
        <time>2020-01-16T19:40:49.190Z</time>
      </trkpt>
      <trkpt lat="43.9388" lon="5.29409">
        <ele>348.23864746094</ele>
        <time>2020-01-16T19:40:53.450Z</time>
      </trkpt>
      <trkpt lat="43.93875" lon="5.29352">
        <ele>346.34655761719</ele>
        <time>2020-01-16T19:40:57.718Z</time>
      </trkpt>
      <trkpt lat="43.93874" lon="5.2935">
        <ele>346.23114013672</ele>
        <time>2020-01-16T19:41:01.986Z</time>
      </trkpt>
      <trkpt lat="43.93891" lon="5.29306">
        <ele>345.53103637695</ele>
        <time>2020-01-16T19:41:06.262Z</time>
      </trkpt>
      <trkpt lat="43.93891" lon="5.29304">
        <ele>345.43594360352</ele>
        <time>2020-01-16T19:41:10.538Z</time>
      </trkpt>
      <trkpt lat="43.93953" lon="5.29194">
        <ele>339.41744995117</ele>
        <time>2020-01-16T19:41:14.834Z</time>
      </trkpt>
      <trkpt lat="43.93954" lon="5.29192">
        <ele>339.31173706055</ele>
        <time>2020-01-16T19:41:19.130Z</time>
      </trkpt>
      <trkpt lat="43.93831" lon="5.29272">
        <ele>333.93057250977</ele>
        <time>2020-01-16T19:41:23.453Z</time>
      </trkpt>
      <trkpt lat="43.9383" lon="5.29273">
        <ele>333.82315063477</ele>
        <time>2020-01-16T19:41:27.777Z</time>
      </trkpt>
      <trkpt lat="43.93739" lon="5.29389">
        <ele>325.95812988281</ele>
        <time>2020-01-16T19:41:32.125Z</time>
      </trkpt>
      <trkpt lat="43.93738" lon="5.29391">
        <ele>325.75119018555</ele>
        <time>2020-01-16T19:41:36.474Z</time>
      </trkpt>
      <trkpt lat="43.93676" lon="5.29533">
        <ele>312.87405395508</ele>
        <time>2020-01-16T19:41:40.847Z</time>
      </trkpt>
      <trkpt lat="43.93675" lon="5.29535">
        <ele>312.80410766602</ele>
        <time>2020-01-16T19:41:45.220Z</time>
      </trkpt>
      <trkpt lat="43.93594" lon="5.29676">
        <ele>300.59439086914</ele>
        <time>2020-01-16T19:41:49.619Z</time>
      </trkpt>
      <trkpt lat="43.93594" lon="5.29677">
        <ele>300.45907592773</ele>
        <time>2020-01-16T19:41:54.018Z</time>
      </trkpt>
      <trkpt lat="43.9358" lon="5.29577">
        <ele>299.6448059082</ele>
        <time>2020-01-16T19:41:58.432Z</time>
      </trkpt>
      <trkpt lat="43.93579" lon="5.29575">
        <ele>299.63052368164</ele>
        <time>2020-01-16T19:42:02.846Z</time>
      </trkpt>
      <trkpt lat="43.93571" lon="5.29478">
        <ele>298.86734008789</ele>
        <time>2020-01-16T19:42:07.274Z</time>
      </trkpt>
      <trkpt lat="43.93571" lon="5.29477">
        <ele>298.8278503418</ele>
        <time>2020-01-16T19:42:11.703Z</time>
      </trkpt>
      <trkpt lat="43.93554" lon="5.29351">
        <ele>294.90859985352</ele>
        <time>2020-01-16T19:42:16.150Z</time>
      </trkpt>
      <trkpt lat="43.93554" lon="5.29349">
        <ele>294.83901977539</ele>
        <time>2020-01-16T19:42:20.598Z</time>
      </trkpt>
      <trkpt lat="43.93552" lon="5.293">
        <ele>293.45272827148</ele>
        <time>2020-01-16T19:42:25.053Z</time>
      </trkpt>
      <trkpt lat="43.93552" lon="5.29299">
        <ele>293.39724731445</ele>
        <time>2020-01-16T19:42:29.508Z</time>
      </trkpt>
      <trkpt lat="43.93565" lon="5.29246">
        <ele>293.45169067383</ele>
        <time>2020-01-16T19:42:33.971Z</time>
      </trkpt>
      <trkpt lat="43.93566" lon="5.29244">
        <ele>293.38092041016</ele>
        <time>2020-01-16T19:42:38.434Z</time>
      </trkpt>
      <trkpt lat="43.93562" lon="5.29108">
        <ele>283.87985229492</ele>
        <time>2020-01-16T19:42:42.917Z</time>
      </trkpt>
      <trkpt lat="43.93562" lon="5.29106">
        <ele>283.85427856445</ele>
        <time>2020-01-16T19:42:47.400Z</time>
      </trkpt>
      <trkpt lat="43.93665" lon="5.29106">
        <ele>295.3942565918</ele>
        <time>2020-01-16T19:42:51.904Z</time>
      </trkpt>
      <trkpt lat="43.93667" lon="5.29106">
        <ele>295.59405517578</ele>
        <time>2020-01-16T19:42:56.408Z</time>
      </trkpt>
      <trkpt lat="43.93711" lon="5.291">
        <ele>302.11871337891</ele>
        <time>2020-01-16T19:43:00.921Z</time>
      </trkpt>
      <trkpt lat="43.93712" lon="5.291">
        <ele>302.35968017578</ele>
        <time>2020-01-16T19:43:05.434Z</time>
      </trkpt>
      <trkpt lat="43.93783" lon="5.29137">
        <ele>314.13125610352</ele>
        <time>2020-01-16T19:43:09.962Z</time>
      </trkpt>
      <trkpt lat="43.93785" lon="5.29138">
        <ele>314.44735717773</ele>
        <time>2020-01-16T19:43:14.491Z</time>
      </trkpt>
      <trkpt lat="43.93884" lon="5.29167">
        <ele>332.71685791016</ele>
        <time>2020-01-16T19:43:19.040Z</time>
      </trkpt>
      <trkpt lat="43.93886" lon="5.29168">
        <ele>332.90921020508</ele>
        <time>2020-01-16T19:43:23.589Z</time>
      </trkpt>
      <trkpt lat="43.93947" lon="5.29175">
        <ele>339.89956665039</ele>
        <time>2020-01-16T19:43:28.151Z</time>
      </trkpt>
      <trkpt lat="43.93948" lon="5.29175">
        <ele>339.7314453125</ele>
        <time>2020-01-16T19:43:32.713Z</time>
      </trkpt>
      <trkpt lat="43.93967" lon="5.29192">
        <ele>337.86444091797</ele>
        <time>2020-01-16T19:43:37.279Z</time>
      </trkpt>
      <trkpt lat="43.93969" lon="5.29193">
        <ele>337.73962402344</ele>
        <time>2020-01-16T19:43:41.846Z</time>
      </trkpt>
      <trkpt lat="43.94306" lon="5.29761">
        <ele>368.22769165039</ele>
        <time>2020-01-16T19:43:46.519Z</time>
      </trkpt>
      <trkpt lat="43.94307" lon="5.29762">
        <ele>368.3928527832</ele>
        <time>2020-01-16T19:43:51.192Z</time>
      </trkpt>
      <trkpt lat="43.9429" lon="5.29713">
        <ele>352.04782104492</ele>
        <time>2020-01-16T19:43:55.873Z</time>
      </trkpt>
      <trkpt lat="43.9429" lon="5.29711">
        <ele>351.3844909668</ele>
        <time>2020-01-16T19:44:00.554Z</time>
      </trkpt>
      <trkpt lat="43.94281" lon="5.29674">
        <ele>335.45852661133</ele>
        <time>2020-01-16T19:44:05.241Z</time>
      </trkpt>
      <trkpt lat="43.94281" lon="5.29672">
        <ele>334.63122558594</ele>
        <time>2020-01-16T19:44:09.928Z</time>
      </trkpt>
      <trkpt lat="43.94308" lon="5.29642">
        <ele>310.53332519531</ele>
        <time>2020-01-16T19:44:14.622Z</time>
      </trkpt>
      <trkpt lat="43.94309" lon="5.2964">
        <ele>310.13159179688</ele>
        <time>2020-01-16T19:44:19.317Z</time>
      </trkpt>
      <trkpt lat="43.94357" lon="5.29697">
        <ele>309.72399902344</ele>
        <time>2020-01-16T19:44:24.024Z</time>
      </trkpt>
      <trkpt lat="43.94358" lon="5.29698">
        <ele>309.7507019043</ele>
        <time>2020-01-16T19:44:28.731Z</time>
      </trkpt>
      <trkpt lat="43.94398" lon="5.29804">
        <ele>339.61953735352</ele>
        <time>2020-01-16T19:44:33.456Z</time>
      </trkpt>
      <trkpt lat="43.94399" lon="5.29805">
        <ele>340.16510009766</ele>
        <time>2020-01-16T19:44:38.181Z</time>
      </trkpt>
      <trkpt lat="43.94393" lon="5.29825">
        <ele>355.17639160156</ele>
        <time>2020-01-16T19:44:42.909Z</time>
      </trkpt>
      <trkpt lat="43.94393" lon="5.29827">
        <ele>356.67492675781</ele>
        <time>2020-01-16T19:44:47.637Z</time>
      </trkpt>
      <trkpt lat="43.94415" lon="5.29866">
        <ele>362.01647949219</ele>
        <time>2020-01-16T19:44:52.372Z</time>
      </trkpt>
      <trkpt lat="43.94416" lon="5.29867">
        <ele>362.20806884766</ele>
        <time>2020-01-16T19:44:57.108Z</time>
      </trkpt>
      <trkpt lat="43.94519" lon="5.3004">
        <ele>400.06143188477</ele>
        <time>2020-01-16T19:45:01.876Z</time>
      </trkpt>
      <trkpt lat="43.9452" lon="5.30042">
        <ele>400.61541748047</ele>
        <time>2020-01-16T19:45:06.644Z</time>
      </trkpt>
      <trkpt lat="43.94546" lon="5.30036">
        <ele>378.19320678711</ele>
        <time>2020-01-16T19:45:11.418Z</time>
      </trkpt>
      <trkpt lat="43.94548" lon="5.30036">
        <ele>376.85845947266</ele>
        <time>2020-01-16T19:45:16.192Z</time>
      </trkpt>
      <trkpt lat="43.94579" lon="5.30025">
        <ele>346.99618530273</ele>
        <time>2020-01-16T19:45:20.972Z</time>
      </trkpt>
      <trkpt lat="43.9458" lon="5.30025">
        <ele>345.49423217773</ele>
        <time>2020-01-16T19:45:25.753Z</time>
      </trkpt>
      <trkpt lat="43.94582" lon="5.30042">
        <ele>357.47570800781</ele>
        <time>2020-01-16T19:45:30.536Z</time>
      </trkpt>
      <trkpt lat="43.94582" lon="5.30044">
        <ele>358.97454833984</ele>
        <time>2020-01-16T19:45:35.319Z</time>
      </trkpt>
      <trkpt lat="43.94533" lon="5.30056">
        <ele>401.60882568359</ele>
        <time>2020-01-16T19:45:40.112Z</time>
      </trkpt>
      <trkpt lat="43.94531" lon="5.30056">
        <ele>402.31616210938</ele>
        <time>2020-01-16T19:45:44.906Z</time>
      </trkpt>
      <trkpt lat="43.94513" lon="5.30056">
        <ele>406.68838500977</ele>
        <time>2020-01-16T19:45:49.703Z</time>
      </trkpt>
      <trkpt lat="43.94512" lon="5.30055">
        <ele>406.95892333984</ele>
        <time>2020-01-16T19:45:54.501Z</time>
      </trkpt>
      <trkpt lat="43.9459" lon="5.30134">
        <ele>405.08340454102</ele>
        <time>2020-01-16T19:45:59.318Z</time>
      </trkpt>
      <trkpt lat="43.94591" lon="5.30135">
        <ele>405.07269287109</ele>
        <time>2020-01-16T19:46:04.135Z</time>
      </trkpt>
      <trkpt lat="43.94625" lon="5.30134">
        <ele>388.68869018555</ele>
        <time>2020-01-16T19:46:08.959Z</time>
      </trkpt>
      <trkpt lat="43.94628" lon="5.30134">
        <ele>386.72964477539</ele>
        <time>2020-01-16T19:46:13.784Z</time>
      </trkpt>
    </trkseg>
  </trk>
</gpx>